<?xml version="1.0" encoding="UTF-8" standalone="no" ?>
<gpx xmlns="http://www.topografix.com/GPX/1/1" xmlns:xsi="http://www.w3.org/2001/XMLSchema-instance" xsi:schemaLocation="http://www.topografix.com/GPX/1/1 http://www.topografix.com/GPX/1/1/gpx.xsd" version="1.1" creator="VisuGPX - https://www.visugpx.com">
  <metadata>
    <name>Jettingen 2</name>
    <desc><![CDATA[tres belle randonnee]]></desc>
  </metadata>
  <trk>
    <name><![CDATA[Jettingen 2]]></name>
    <trkseg>
      <trkpt lat="47.5926" lon="7.37192">
        <ele>420</ele>
        <time>2016-08-21T05:19:29.000Z</time>
      </trkpt>
      <trkpt lat="47.59262" lon="7.37205">
        <ele>417</ele>
        <time>2016-08-21T05:19:43.000Z</time>
      </trkpt>
      <trkpt lat="47.59263" lon="7.3722">
        <ele>412</ele>
        <time>2016-08-21T05:21:26.000Z</time>
      </trkpt>
      <trkpt lat="47.59255" lon="7.37222">
        <ele>413</ele>
        <time>2016-08-21T05:21:47.000Z</time>
      </trkpt>
      <trkpt lat="47.59247" lon="7.37214">
        <ele>414</ele>
        <time>2016-08-21T05:21:56.000Z</time>
      </trkpt>
      <trkpt lat="47.5924" lon="7.37203">
        <ele>415</ele>
        <time>2016-08-21T05:22:05.000Z</time>
      </trkpt>
      <trkpt lat="47.59232" lon="7.37194">
        <ele>416</ele>
        <time>2016-08-21T05:22:13.000Z</time>
      </trkpt>
      <trkpt lat="47.59224" lon="7.37186">
        <ele>417</ele>
        <time>2016-08-21T05:22:21.000Z</time>
      </trkpt>
      <trkpt lat="47.59214" lon="7.37184">
        <ele>418</ele>
        <time>2016-08-21T05:22:39.000Z</time>
      </trkpt>
      <trkpt lat="47.59208" lon="7.37173">
        <ele>418</ele>
        <time>2016-08-21T05:22:45.000Z</time>
      </trkpt>
      <trkpt lat="47.59201" lon="7.37161">
        <ele>419</ele>
        <time>2016-08-21T05:22:52.000Z</time>
      </trkpt>
      <trkpt lat="47.59195" lon="7.3715">
        <ele>421</ele>
        <time>2016-08-21T05:22:59.000Z</time>
      </trkpt>
      <trkpt lat="47.5919" lon="7.37139">
        <ele>421</ele>
        <time>2016-08-21T05:23:06.000Z</time>
      </trkpt>
      <trkpt lat="47.59183" lon="7.37129">
        <ele>421</ele>
        <time>2016-08-21T05:23:22.000Z</time>
      </trkpt>
      <trkpt lat="47.59175" lon="7.3712">
        <ele>422</ele>
        <time>2016-08-21T05:23:27.000Z</time>
      </trkpt>
      <trkpt lat="47.59168" lon="7.37109">
        <ele>420</ele>
        <time>2016-08-21T05:23:34.000Z</time>
      </trkpt>
      <trkpt lat="47.5916" lon="7.37099">
        <ele>420</ele>
        <time>2016-08-21T05:23:42.000Z</time>
      </trkpt>
      <trkpt lat="47.59153" lon="7.3709">
        <ele>421</ele>
        <time>2016-08-21T05:23:50.000Z</time>
      </trkpt>
      <trkpt lat="47.59147" lon="7.37081">
        <ele>421</ele>
        <time>2016-08-21T05:23:58.000Z</time>
      </trkpt>
      <trkpt lat="47.59139" lon="7.37072">
        <ele>423</ele>
        <time>2016-08-21T05:24:07.000Z</time>
      </trkpt>
      <trkpt lat="47.59132" lon="7.37062">
        <ele>423</ele>
        <time>2016-08-21T05:24:15.000Z</time>
      </trkpt>
      <trkpt lat="47.59124" lon="7.37054">
        <ele>425</ele>
        <time>2016-08-21T05:24:24.000Z</time>
      </trkpt>
      <trkpt lat="47.59117" lon="7.37043">
        <ele>423</ele>
        <time>2016-08-21T05:24:32.000Z</time>
      </trkpt>
      <trkpt lat="47.5911" lon="7.37034">
        <ele>424</ele>
        <time>2016-08-21T05:24:40.000Z</time>
      </trkpt>
      <trkpt lat="47.59103" lon="7.37024">
        <ele>425</ele>
        <time>2016-08-21T05:24:48.000Z</time>
      </trkpt>
      <trkpt lat="47.59096" lon="7.37012">
        <ele>426</ele>
        <time>2016-08-21T05:24:56.000Z</time>
      </trkpt>
      <trkpt lat="47.59089" lon="7.37003">
        <ele>427</ele>
        <time>2016-08-21T05:25:03.000Z</time>
      </trkpt>
      <trkpt lat="47.59082" lon="7.36995">
        <ele>429</ele>
        <time>2016-08-21T05:25:10.000Z</time>
      </trkpt>
      <trkpt lat="47.59075" lon="7.36985">
        <ele>430</ele>
        <time>2016-08-21T05:25:17.000Z</time>
      </trkpt>
      <trkpt lat="47.59069" lon="7.36975">
        <ele>430</ele>
        <time>2016-08-21T05:25:25.000Z</time>
      </trkpt>
      <trkpt lat="47.5906" lon="7.36968">
        <ele>432</ele>
        <time>2016-08-21T05:25:33.000Z</time>
      </trkpt>
      <trkpt lat="47.59053" lon="7.36959">
        <ele>433</ele>
        <time>2016-08-21T05:25:41.000Z</time>
      </trkpt>
      <trkpt lat="47.59045" lon="7.36952">
        <ele>435</ele>
        <time>2016-08-21T05:25:49.000Z</time>
      </trkpt>
      <trkpt lat="47.59036" lon="7.36958">
        <ele>435</ele>
        <time>2016-08-21T05:25:57.000Z</time>
      </trkpt>
      <trkpt lat="47.59028" lon="7.36967">
        <ele>434</ele>
        <time>2016-08-21T05:26:05.000Z</time>
      </trkpt>
      <trkpt lat="47.59021" lon="7.36977">
        <ele>435</ele>
        <time>2016-08-21T05:26:12.000Z</time>
      </trkpt>
      <trkpt lat="47.59015" lon="7.36986">
        <ele>436</ele>
        <time>2016-08-21T05:26:19.000Z</time>
      </trkpt>
      <trkpt lat="47.59007" lon="7.36996">
        <ele>438</ele>
        <time>2016-08-21T05:26:26.000Z</time>
      </trkpt>
      <trkpt lat="47.58999" lon="7.37005">
        <ele>439</ele>
        <time>2016-08-21T05:26:33.000Z</time>
      </trkpt>
      <trkpt lat="47.58992" lon="7.37015">
        <ele>440</ele>
        <time>2016-08-21T05:26:40.000Z</time>
      </trkpt>
      <trkpt lat="47.58986" lon="7.37027">
        <ele>439</ele>
        <time>2016-08-21T05:27:01.000Z</time>
      </trkpt>
      <trkpt lat="47.58978" lon="7.37035">
        <ele>439</ele>
        <time>2016-08-21T05:27:07.000Z</time>
      </trkpt>
      <trkpt lat="47.58971" lon="7.37044">
        <ele>440</ele>
        <time>2016-08-21T05:27:13.000Z</time>
      </trkpt>
      <trkpt lat="47.58963" lon="7.37053">
        <ele>441</ele>
        <time>2016-08-21T05:27:18.000Z</time>
      </trkpt>
      <trkpt lat="47.58955" lon="7.3706">
        <ele>440</ele>
        <time>2016-08-21T05:27:23.000Z</time>
      </trkpt>
      <trkpt lat="47.58947" lon="7.37069">
        <ele>442</ele>
        <time>2016-08-21T05:27:29.000Z</time>
      </trkpt>
      <trkpt lat="47.58939" lon="7.37077">
        <ele>441</ele>
        <time>2016-08-21T05:27:36.000Z</time>
      </trkpt>
      <trkpt lat="47.58931" lon="7.37085">
        <ele>440</ele>
        <time>2016-08-21T05:27:44.000Z</time>
      </trkpt>
      <trkpt lat="47.58923" lon="7.37094">
        <ele>440</ele>
        <time>2016-08-21T05:27:52.000Z</time>
      </trkpt>
      <trkpt lat="47.58916" lon="7.37103">
        <ele>439</ele>
        <time>2016-08-21T05:27:59.000Z</time>
      </trkpt>
      <trkpt lat="47.58909" lon="7.37112">
        <ele>438</ele>
        <time>2016-08-21T05:28:06.000Z</time>
      </trkpt>
      <trkpt lat="47.58902" lon="7.37122">
        <ele>439</ele>
        <time>2016-08-21T05:28:13.000Z</time>
      </trkpt>
      <trkpt lat="47.58895" lon="7.37133">
        <ele>439</ele>
        <time>2016-08-21T05:28:20.000Z</time>
      </trkpt>
      <trkpt lat="47.58887" lon="7.37142">
        <ele>440</ele>
        <time>2016-08-21T05:28:27.000Z</time>
      </trkpt>
      <trkpt lat="47.5888" lon="7.3715">
        <ele>438</ele>
        <time>2016-08-21T05:28:34.000Z</time>
      </trkpt>
      <trkpt lat="47.58872" lon="7.37158">
        <ele>436</ele>
        <time>2016-08-21T05:28:42.000Z</time>
      </trkpt>
      <trkpt lat="47.58864" lon="7.37167">
        <ele>434</ele>
        <time>2016-08-21T05:28:51.000Z</time>
      </trkpt>
      <trkpt lat="47.58857" lon="7.37176">
        <ele>434</ele>
        <time>2016-08-21T05:28:59.000Z</time>
      </trkpt>
      <trkpt lat="47.58848" lon="7.37185">
        <ele>432</ele>
        <time>2016-08-21T05:29:11.000Z</time>
      </trkpt>
      <trkpt lat="47.58839" lon="7.37193">
        <ele>431</ele>
        <time>2016-08-21T05:29:17.000Z</time>
      </trkpt>
      <trkpt lat="47.58833" lon="7.37203">
        <ele>431</ele>
        <time>2016-08-21T05:29:23.000Z</time>
      </trkpt>
      <trkpt lat="47.58826" lon="7.37212">
        <ele>431</ele>
        <time>2016-08-21T05:29:29.000Z</time>
      </trkpt>
      <trkpt lat="47.5882" lon="7.37222">
        <ele>431</ele>
        <time>2016-08-21T05:29:35.000Z</time>
      </trkpt>
      <trkpt lat="47.58813" lon="7.37231">
        <ele>432</ele>
        <time>2016-08-21T05:29:41.000Z</time>
      </trkpt>
      <trkpt lat="47.58805" lon="7.37241">
        <ele>431</ele>
        <time>2016-08-21T05:29:48.000Z</time>
      </trkpt>
      <trkpt lat="47.58798" lon="7.37251">
        <ele>429</ele>
        <time>2016-08-21T05:29:55.000Z</time>
      </trkpt>
      <trkpt lat="47.5879" lon="7.3726">
        <ele>428</ele>
        <time>2016-08-21T05:30:02.000Z</time>
      </trkpt>
      <trkpt lat="47.58781" lon="7.37269">
        <ele>427</ele>
        <time>2016-08-21T05:30:10.000Z</time>
      </trkpt>
      <trkpt lat="47.58774" lon="7.37279">
        <ele>428</ele>
        <time>2016-08-21T05:30:17.000Z</time>
      </trkpt>
      <trkpt lat="47.58767" lon="7.3729">
        <ele>427</ele>
        <time>2016-08-21T05:30:24.000Z</time>
      </trkpt>
      <trkpt lat="47.5876" lon="7.373">
        <ele>427</ele>
        <time>2016-08-21T05:30:31.000Z</time>
      </trkpt>
      <trkpt lat="47.58752" lon="7.37311">
        <ele>428</ele>
        <time>2016-08-21T05:30:38.000Z</time>
      </trkpt>
      <trkpt lat="47.58745" lon="7.37319">
        <ele>427</ele>
        <time>2016-08-21T05:30:44.000Z</time>
      </trkpt>
      <trkpt lat="47.58738" lon="7.37328">
        <ele>427</ele>
        <time>2016-08-21T05:30:50.000Z</time>
      </trkpt>
      <trkpt lat="47.58731" lon="7.37337">
        <ele>427</ele>
        <time>2016-08-21T05:30:57.000Z</time>
      </trkpt>
      <trkpt lat="47.58724" lon="7.37347">
        <ele>428</ele>
        <time>2016-08-21T05:31:04.000Z</time>
      </trkpt>
      <trkpt lat="47.58717" lon="7.37355">
        <ele>427</ele>
        <time>2016-08-21T05:31:11.000Z</time>
      </trkpt>
      <trkpt lat="47.58709" lon="7.37363">
        <ele>428</ele>
        <time>2016-08-21T05:31:19.000Z</time>
      </trkpt>
      <trkpt lat="47.58701" lon="7.37373">
        <ele>429</ele>
        <time>2016-08-21T05:31:27.000Z</time>
      </trkpt>
      <trkpt lat="47.58694" lon="7.37382">
        <ele>430</ele>
        <time>2016-08-21T05:31:35.000Z</time>
      </trkpt>
      <trkpt lat="47.58686" lon="7.37391">
        <ele>431</ele>
        <time>2016-08-21T05:31:43.000Z</time>
      </trkpt>
      <trkpt lat="47.58679" lon="7.374">
        <ele>432</ele>
        <time>2016-08-21T05:31:51.000Z</time>
      </trkpt>
      <trkpt lat="47.58671" lon="7.37409">
        <ele>432</ele>
        <time>2016-08-21T05:32:00.000Z</time>
      </trkpt>
      <trkpt lat="47.58664" lon="7.37418">
        <ele>432</ele>
        <time>2016-08-21T05:32:08.000Z</time>
      </trkpt>
      <trkpt lat="47.58656" lon="7.37426">
        <ele>433</ele>
        <time>2016-08-21T05:32:18.000Z</time>
      </trkpt>
      <trkpt lat="47.58648" lon="7.37435">
        <ele>433</ele>
        <time>2016-08-21T05:32:26.000Z</time>
      </trkpt>
      <trkpt lat="47.5864" lon="7.37445">
        <ele>434</ele>
        <time>2016-08-21T05:32:34.000Z</time>
      </trkpt>
      <trkpt lat="47.58633" lon="7.37453">
        <ele>434</ele>
        <time>2016-08-21T05:32:41.000Z</time>
      </trkpt>
      <trkpt lat="47.58625" lon="7.37461">
        <ele>433</ele>
        <time>2016-08-21T05:32:49.000Z</time>
      </trkpt>
      <trkpt lat="47.58617" lon="7.3747">
        <ele>433</ele>
        <time>2016-08-21T05:32:56.000Z</time>
      </trkpt>
      <trkpt lat="47.58609" lon="7.37478">
        <ele>432</ele>
        <time>2016-08-21T05:33:03.000Z</time>
      </trkpt>
      <trkpt lat="47.58601" lon="7.37489">
        <ele>431</ele>
        <time>2016-08-21T05:33:11.000Z</time>
      </trkpt>
      <trkpt lat="47.58593" lon="7.37498">
        <ele>431</ele>
        <time>2016-08-21T05:33:18.000Z</time>
      </trkpt>
      <trkpt lat="47.58586" lon="7.37508">
        <ele>430</ele>
        <time>2016-08-21T05:33:25.000Z</time>
      </trkpt>
      <trkpt lat="47.58578" lon="7.37517">
        <ele>430</ele>
        <time>2016-08-21T05:33:32.000Z</time>
      </trkpt>
      <trkpt lat="47.5857" lon="7.37526">
        <ele>429</ele>
        <time>2016-08-21T05:33:39.000Z</time>
      </trkpt>
      <trkpt lat="47.58563" lon="7.37535">
        <ele>427</ele>
        <time>2016-08-21T05:33:45.000Z</time>
      </trkpt>
      <trkpt lat="47.58556" lon="7.37545">
        <ele>428</ele>
        <time>2016-08-21T05:33:52.000Z</time>
      </trkpt>
      <trkpt lat="47.58548" lon="7.37556">
        <ele>427</ele>
        <time>2016-08-21T05:34:00.000Z</time>
      </trkpt>
      <trkpt lat="47.58541" lon="7.37567">
        <ele>427</ele>
        <time>2016-08-21T05:34:08.000Z</time>
      </trkpt>
      <trkpt lat="47.58534" lon="7.37577">
        <ele>424</ele>
        <time>2016-08-21T05:34:15.000Z</time>
      </trkpt>
      <trkpt lat="47.5853" lon="7.37592">
        <ele>424</ele>
        <time>2016-08-21T05:34:22.000Z</time>
      </trkpt>
      <trkpt lat="47.58529" lon="7.37606">
        <ele>424</ele>
        <time>2016-08-21T05:34:29.000Z</time>
      </trkpt>
      <trkpt lat="47.5853" lon="7.37622">
        <ele>426</ele>
        <time>2016-08-21T05:34:37.000Z</time>
      </trkpt>
      <trkpt lat="47.5853" lon="7.37637">
        <ele>426</ele>
        <time>2016-08-21T05:34:45.000Z</time>
      </trkpt>
      <trkpt lat="47.58531" lon="7.37651">
        <ele>426</ele>
        <time>2016-08-21T05:34:52.000Z</time>
      </trkpt>
      <trkpt lat="47.58532" lon="7.37664">
        <ele>427</ele>
        <time>2016-08-21T05:34:59.000Z</time>
      </trkpt>
      <trkpt lat="47.58532" lon="7.37679">
        <ele>426</ele>
        <time>2016-08-21T05:35:07.000Z</time>
      </trkpt>
      <trkpt lat="47.58531" lon="7.37694">
        <ele>427</ele>
        <time>2016-08-21T05:35:15.000Z</time>
      </trkpt>
      <trkpt lat="47.58528" lon="7.37708">
        <ele>427</ele>
        <time>2016-08-21T05:35:22.000Z</time>
      </trkpt>
      <trkpt lat="47.58524" lon="7.3772">
        <ele>425</ele>
        <time>2016-08-21T05:35:29.000Z</time>
      </trkpt>
      <trkpt lat="47.58522" lon="7.37733">
        <ele>424</ele>
        <time>2016-08-21T05:35:36.000Z</time>
      </trkpt>
      <trkpt lat="47.58529" lon="7.37742">
        <ele>424</ele>
        <time>2016-08-21T05:35:42.000Z</time>
      </trkpt>
      <trkpt lat="47.58537" lon="7.37751">
        <ele>422</ele>
        <time>2016-08-21T05:35:49.000Z</time>
      </trkpt>
      <trkpt lat="47.58542" lon="7.37762">
        <ele>421</ele>
        <time>2016-08-21T05:35:56.000Z</time>
      </trkpt>
      <trkpt lat="47.58548" lon="7.37774">
        <ele>419</ele>
        <time>2016-08-21T05:36:04.000Z</time>
      </trkpt>
      <trkpt lat="47.58555" lon="7.37784">
        <ele>419</ele>
        <time>2016-08-21T05:36:11.000Z</time>
      </trkpt>
      <trkpt lat="47.58561" lon="7.37795">
        <ele>419</ele>
        <time>2016-08-21T05:36:18.000Z</time>
      </trkpt>
      <trkpt lat="47.58567" lon="7.37806">
        <ele>418</ele>
        <time>2016-08-21T05:36:25.000Z</time>
      </trkpt>
      <trkpt lat="47.58574" lon="7.37817">
        <ele>418</ele>
        <time>2016-08-21T05:36:32.000Z</time>
      </trkpt>
      <trkpt lat="47.5858" lon="7.37828">
        <ele>419</ele>
        <time>2016-08-21T05:36:39.000Z</time>
      </trkpt>
      <trkpt lat="47.58587" lon="7.37839">
        <ele>419</ele>
        <time>2016-08-21T05:36:46.000Z</time>
      </trkpt>
      <trkpt lat="47.58593" lon="7.37851">
        <ele>418</ele>
        <time>2016-08-21T05:36:53.000Z</time>
      </trkpt>
      <trkpt lat="47.586" lon="7.37861">
        <ele>418</ele>
        <time>2016-08-21T05:37:00.000Z</time>
      </trkpt>
      <trkpt lat="47.58607" lon="7.37871">
        <ele>418</ele>
        <time>2016-08-21T05:37:07.000Z</time>
      </trkpt>
      <trkpt lat="47.58606" lon="7.37888">
        <ele>421</ele>
        <time>2016-08-21T05:37:15.000Z</time>
      </trkpt>
      <trkpt lat="47.58599" lon="7.37898">
        <ele>422</ele>
        <time>2016-08-21T05:37:22.000Z</time>
      </trkpt>
      <trkpt lat="47.58592" lon="7.37907">
        <ele>421</ele>
        <time>2016-08-21T05:37:28.000Z</time>
      </trkpt>
      <trkpt lat="47.58584" lon="7.37914">
        <ele>421</ele>
        <time>2016-08-21T05:37:36.000Z</time>
      </trkpt>
      <trkpt lat="47.58579" lon="7.37925">
        <ele>421</ele>
        <time>2016-08-21T05:37:48.000Z</time>
      </trkpt>
      <trkpt lat="47.58572" lon="7.37935">
        <ele>422</ele>
        <time>2016-08-21T05:37:55.000Z</time>
      </trkpt>
      <trkpt lat="47.58565" lon="7.37945">
        <ele>424</ele>
        <time>2016-08-21T05:38:02.000Z</time>
      </trkpt>
      <trkpt lat="47.58558" lon="7.37955">
        <ele>423</ele>
        <time>2016-08-21T05:38:10.000Z</time>
      </trkpt>
      <trkpt lat="47.58551" lon="7.37964">
        <ele>423</ele>
        <time>2016-08-21T05:38:17.000Z</time>
      </trkpt>
      <trkpt lat="47.58544" lon="7.37974">
        <ele>423</ele>
        <time>2016-08-21T05:38:25.000Z</time>
      </trkpt>
      <trkpt lat="47.58537" lon="7.37984">
        <ele>421</ele>
        <time>2016-08-21T05:38:34.000Z</time>
      </trkpt>
      <trkpt lat="47.5853" lon="7.37995">
        <ele>422</ele>
        <time>2016-08-21T05:38:41.000Z</time>
      </trkpt>
      <trkpt lat="47.58522" lon="7.38004">
        <ele>422</ele>
        <time>2016-08-21T05:38:49.000Z</time>
      </trkpt>
      <trkpt lat="47.58516" lon="7.38015">
        <ele>422</ele>
        <time>2016-08-21T05:38:57.000Z</time>
      </trkpt>
      <trkpt lat="47.58509" lon="7.38028">
        <ele>422</ele>
        <time>2016-08-21T05:39:06.000Z</time>
      </trkpt>
      <trkpt lat="47.58502" lon="7.38037">
        <ele>422</ele>
        <time>2016-08-21T05:39:12.000Z</time>
      </trkpt>
      <trkpt lat="47.58494" lon="7.38045">
        <ele>423</ele>
        <time>2016-08-21T05:39:18.000Z</time>
      </trkpt>
      <trkpt lat="47.58487" lon="7.38055">
        <ele>423</ele>
        <time>2016-08-21T05:39:25.000Z</time>
      </trkpt>
      <trkpt lat="47.58481" lon="7.38066">
        <ele>422</ele>
        <time>2016-08-21T05:39:32.000Z</time>
      </trkpt>
      <trkpt lat="47.58474" lon="7.38075">
        <ele>422</ele>
        <time>2016-08-21T05:39:38.000Z</time>
      </trkpt>
      <trkpt lat="47.58467" lon="7.38088">
        <ele>423</ele>
        <time>2016-08-21T05:39:46.000Z</time>
      </trkpt>
      <trkpt lat="47.58463" lon="7.381">
        <ele>423</ele>
        <time>2016-08-21T05:39:53.000Z</time>
      </trkpt>
      <trkpt lat="47.58456" lon="7.38111">
        <ele>424</ele>
        <time>2016-08-21T05:40:00.000Z</time>
      </trkpt>
      <trkpt lat="47.58453" lon="7.38124">
        <ele>424</ele>
        <time>2016-08-21T05:40:07.000Z</time>
      </trkpt>
      <trkpt lat="47.58458" lon="7.38137">
        <ele>423</ele>
        <time>2016-08-21T05:40:14.000Z</time>
      </trkpt>
      <trkpt lat="47.58464" lon="7.38148">
        <ele>422</ele>
        <time>2016-08-21T05:40:21.000Z</time>
      </trkpt>
      <trkpt lat="47.58471" lon="7.38158">
        <ele>419</ele>
        <time>2016-08-21T05:40:28.000Z</time>
      </trkpt>
      <trkpt lat="47.58477" lon="7.3817">
        <ele>417</ele>
        <time>2016-08-21T05:40:36.000Z</time>
      </trkpt>
      <trkpt lat="47.58484" lon="7.38181">
        <ele>417</ele>
        <time>2016-08-21T05:40:43.000Z</time>
      </trkpt>
      <trkpt lat="47.58489" lon="7.38193">
        <ele>415</ele>
        <time>2016-08-21T05:40:51.000Z</time>
      </trkpt>
      <trkpt lat="47.58495" lon="7.38204">
        <ele>413</ele>
        <time>2016-08-21T05:40:58.000Z</time>
      </trkpt>
      <trkpt lat="47.585" lon="7.38215">
        <ele>412</ele>
        <time>2016-08-21T05:41:05.000Z</time>
      </trkpt>
      <trkpt lat="47.58506" lon="7.38227">
        <ele>412</ele>
        <time>2016-08-21T05:41:12.000Z</time>
      </trkpt>
      <trkpt lat="47.58514" lon="7.38238">
        <ele>413</ele>
        <time>2016-08-21T05:41:19.000Z</time>
      </trkpt>
      <trkpt lat="47.58519" lon="7.38249">
        <ele>413</ele>
        <time>2016-08-21T05:41:25.000Z</time>
      </trkpt>
      <trkpt lat="47.58525" lon="7.3826">
        <ele>412</ele>
        <time>2016-08-21T05:41:31.000Z</time>
      </trkpt>
      <trkpt lat="47.58532" lon="7.38268">
        <ele>414</ele>
        <time>2016-08-21T05:41:37.000Z</time>
      </trkpt>
      <trkpt lat="47.58541" lon="7.38274">
        <ele>412</ele>
        <time>2016-08-21T05:41:45.000Z</time>
      </trkpt>
      <trkpt lat="47.58549" lon="7.38267">
        <ele>412</ele>
        <time>2016-08-21T05:41:54.000Z</time>
      </trkpt>
      <trkpt lat="47.58558" lon="7.38261">
        <ele>414</ele>
        <time>2016-08-21T05:42:00.000Z</time>
      </trkpt>
      <trkpt lat="47.58567" lon="7.38253">
        <ele>413</ele>
        <time>2016-08-21T05:42:07.000Z</time>
      </trkpt>
      <trkpt lat="47.58574" lon="7.38244">
        <ele>413</ele>
        <time>2016-08-21T05:42:14.000Z</time>
      </trkpt>
      <trkpt lat="47.58581" lon="7.38235">
        <ele>413</ele>
        <time>2016-08-21T05:42:20.000Z</time>
      </trkpt>
      <trkpt lat="47.58589" lon="7.38229">
        <ele>411</ele>
        <time>2016-08-21T05:42:26.000Z</time>
      </trkpt>
      <trkpt lat="47.58597" lon="7.3822">
        <ele>412</ele>
        <time>2016-08-21T05:42:33.000Z</time>
      </trkpt>
      <trkpt lat="47.58605" lon="7.38213">
        <ele>411</ele>
        <time>2016-08-21T05:42:39.000Z</time>
      </trkpt>
      <trkpt lat="47.58613" lon="7.38204">
        <ele>412</ele>
        <time>2016-08-21T05:42:47.000Z</time>
      </trkpt>
      <trkpt lat="47.58622" lon="7.38194">
        <ele>413</ele>
        <time>2016-08-21T05:42:55.000Z</time>
      </trkpt>
      <trkpt lat="47.58629" lon="7.38184">
        <ele>412</ele>
        <time>2016-08-21T05:43:02.000Z</time>
      </trkpt>
      <trkpt lat="47.58638" lon="7.38178">
        <ele>410</ele>
        <time>2016-08-21T05:43:09.000Z</time>
      </trkpt>
      <trkpt lat="47.58646" lon="7.3817">
        <ele>407</ele>
        <time>2016-08-21T05:43:17.000Z</time>
      </trkpt>
      <trkpt lat="47.58654" lon="7.38162">
        <ele>408</ele>
        <time>2016-08-21T05:43:25.000Z</time>
      </trkpt>
      <trkpt lat="47.58662" lon="7.38155">
        <ele>409</ele>
        <time>2016-08-21T05:43:31.000Z</time>
      </trkpt>
      <trkpt lat="47.5867" lon="7.38147">
        <ele>409</ele>
        <time>2016-08-21T05:43:37.000Z</time>
      </trkpt>
      <trkpt lat="47.58678" lon="7.38138">
        <ele>411</ele>
        <time>2016-08-21T05:45:39.000Z</time>
      </trkpt>
      <trkpt lat="47.58685" lon="7.38149">
        <ele>414</ele>
        <time>2016-08-21T05:46:18.000Z</time>
      </trkpt>
      <trkpt lat="47.58692" lon="7.38159">
        <ele>411</ele>
        <time>2016-08-21T05:46:28.000Z</time>
      </trkpt>
      <trkpt lat="47.58696" lon="7.38173">
        <ele>413</ele>
        <time>2016-08-21T05:46:35.000Z</time>
      </trkpt>
      <trkpt lat="47.58698" lon="7.38186">
        <ele>412</ele>
        <time>2016-08-21T05:46:43.000Z</time>
      </trkpt>
      <trkpt lat="47.58695" lon="7.38199">
        <ele>408</ele>
        <time>2016-08-21T05:46:53.000Z</time>
      </trkpt>
      <trkpt lat="47.58689" lon="7.38212">
        <ele>410</ele>
        <time>2016-08-21T05:47:08.000Z</time>
      </trkpt>
      <trkpt lat="47.58684" lon="7.38226">
        <ele>409</ele>
        <time>2016-08-21T05:47:14.000Z</time>
      </trkpt>
      <trkpt lat="47.58681" lon="7.38239">
        <ele>413</ele>
        <time>2016-08-21T05:47:20.000Z</time>
      </trkpt>
      <trkpt lat="47.58675" lon="7.38252">
        <ele>413</ele>
        <time>2016-08-21T05:47:29.000Z</time>
      </trkpt>
      <trkpt lat="47.5867" lon="7.38263">
        <ele>412</ele>
        <time>2016-08-21T05:47:36.000Z</time>
      </trkpt>
      <trkpt lat="47.58664" lon="7.38275">
        <ele>411</ele>
        <time>2016-08-21T05:47:42.000Z</time>
      </trkpt>
      <trkpt lat="47.58658" lon="7.38287">
        <ele>409</ele>
        <time>2016-08-21T05:47:49.000Z</time>
      </trkpt>
      <trkpt lat="47.58651" lon="7.38298">
        <ele>408</ele>
        <time>2016-08-21T05:47:56.000Z</time>
      </trkpt>
      <trkpt lat="47.58643" lon="7.38306">
        <ele>409</ele>
        <time>2016-08-21T05:48:04.000Z</time>
      </trkpt>
      <trkpt lat="47.58637" lon="7.38315">
        <ele>409</ele>
        <time>2016-08-21T05:48:11.000Z</time>
      </trkpt>
      <trkpt lat="47.58631" lon="7.38326">
        <ele>412</ele>
        <time>2016-08-21T05:48:18.000Z</time>
      </trkpt>
      <trkpt lat="47.58623" lon="7.38334">
        <ele>412</ele>
        <time>2016-08-21T05:48:25.000Z</time>
      </trkpt>
      <trkpt lat="47.58616" lon="7.38343">
        <ele>409</ele>
        <time>2016-08-21T05:48:32.000Z</time>
      </trkpt>
      <trkpt lat="47.58608" lon="7.38349">
        <ele>409</ele>
        <time>2016-08-21T05:48:38.000Z</time>
      </trkpt>
      <trkpt lat="47.58598" lon="7.38354">
        <ele>408</ele>
        <time>2016-08-21T05:48:47.000Z</time>
      </trkpt>
      <trkpt lat="47.58589" lon="7.38361">
        <ele>412</ele>
        <time>2016-08-21T05:48:53.000Z</time>
      </trkpt>
      <trkpt lat="47.5858" lon="7.38368">
        <ele>412</ele>
        <time>2016-08-21T05:48:59.000Z</time>
      </trkpt>
      <trkpt lat="47.58573" lon="7.38378">
        <ele>414</ele>
        <time>2016-08-21T05:49:06.000Z</time>
      </trkpt>
      <trkpt lat="47.58567" lon="7.38388">
        <ele>414</ele>
        <time>2016-08-21T05:49:13.000Z</time>
      </trkpt>
      <trkpt lat="47.5856" lon="7.38397">
        <ele>412</ele>
        <time>2016-08-21T05:49:20.000Z</time>
      </trkpt>
      <trkpt lat="47.58553" lon="7.38406">
        <ele>412</ele>
        <time>2016-08-21T05:49:26.000Z</time>
      </trkpt>
      <trkpt lat="47.58545" lon="7.38414">
        <ele>411</ele>
        <time>2016-08-21T05:49:33.000Z</time>
      </trkpt>
      <trkpt lat="47.58538" lon="7.38424">
        <ele>413</ele>
        <time>2016-08-21T05:49:40.000Z</time>
      </trkpt>
      <trkpt lat="47.5853" lon="7.38434">
        <ele>414</ele>
        <time>2016-08-21T05:49:47.000Z</time>
      </trkpt>
      <trkpt lat="47.58522" lon="7.38442">
        <ele>412</ele>
        <time>2016-08-21T05:49:54.000Z</time>
      </trkpt>
      <trkpt lat="47.58515" lon="7.38451">
        <ele>414</ele>
        <time>2016-08-21T05:50:01.000Z</time>
      </trkpt>
      <trkpt lat="47.58509" lon="7.38462">
        <ele>413</ele>
        <time>2016-08-21T05:50:07.000Z</time>
      </trkpt>
      <trkpt lat="47.58502" lon="7.38471">
        <ele>418</ele>
        <time>2016-08-21T05:50:17.000Z</time>
      </trkpt>
      <trkpt lat="47.58495" lon="7.38479">
        <ele>413</ele>
        <time>2016-08-21T05:50:25.000Z</time>
      </trkpt>
      <trkpt lat="47.58487" lon="7.38491">
        <ele>411</ele>
        <time>2016-08-21T05:50:35.000Z</time>
      </trkpt>
      <trkpt lat="47.5848" lon="7.38505">
        <ele>412</ele>
        <time>2016-08-21T05:50:44.000Z</time>
      </trkpt>
      <trkpt lat="47.58475" lon="7.38516">
        <ele>411</ele>
        <time>2016-08-21T05:50:50.000Z</time>
      </trkpt>
      <trkpt lat="47.58467" lon="7.38524">
        <ele>413</ele>
        <time>2016-08-21T05:50:56.000Z</time>
      </trkpt>
      <trkpt lat="47.5846" lon="7.38532">
        <ele>414</ele>
        <time>2016-08-21T05:51:02.000Z</time>
      </trkpt>
      <trkpt lat="47.58452" lon="7.38543">
        <ele>416</ele>
        <time>2016-08-21T05:51:09.000Z</time>
      </trkpt>
      <trkpt lat="47.58444" lon="7.38549">
        <ele>416</ele>
        <time>2016-08-21T05:51:15.000Z</time>
      </trkpt>
      <trkpt lat="47.58435" lon="7.38552">
        <ele>414</ele>
        <time>2016-08-21T05:51:20.000Z</time>
      </trkpt>
      <trkpt lat="47.58425" lon="7.38553">
        <ele>414</ele>
        <time>2016-08-21T05:51:27.000Z</time>
      </trkpt>
      <trkpt lat="47.58415" lon="7.38554">
        <ele>413</ele>
        <time>2016-08-21T05:51:34.000Z</time>
      </trkpt>
      <trkpt lat="47.58405" lon="7.38557">
        <ele>412</ele>
        <time>2016-08-21T05:51:42.000Z</time>
      </trkpt>
      <trkpt lat="47.58395" lon="7.38559">
        <ele>409</ele>
        <time>2016-08-21T05:51:48.000Z</time>
      </trkpt>
      <trkpt lat="47.58386" lon="7.38561">
        <ele>411</ele>
        <time>2016-08-21T05:51:56.000Z</time>
      </trkpt>
      <trkpt lat="47.58375" lon="7.38564">
        <ele>412</ele>
        <time>2016-08-21T05:52:06.000Z</time>
      </trkpt>
      <trkpt lat="47.58366" lon="7.38568">
        <ele>413</ele>
        <time>2016-08-21T05:52:13.000Z</time>
      </trkpt>
      <trkpt lat="47.58356" lon="7.3857">
        <ele>416</ele>
        <time>2016-08-21T05:52:20.000Z</time>
      </trkpt>
      <trkpt lat="47.58346" lon="7.38571">
        <ele>417</ele>
        <time>2016-08-21T05:52:28.000Z</time>
      </trkpt>
      <trkpt lat="47.58337" lon="7.38574">
        <ele>418</ele>
        <time>2016-08-21T05:52:36.000Z</time>
      </trkpt>
      <trkpt lat="47.58327" lon="7.38576">
        <ele>419</ele>
        <time>2016-08-21T05:52:43.000Z</time>
      </trkpt>
      <trkpt lat="47.58319" lon="7.38581">
        <ele>417</ele>
        <time>2016-08-21T05:52:51.000Z</time>
      </trkpt>
      <trkpt lat="47.58308" lon="7.38581">
        <ele>411</ele>
        <time>2016-08-21T05:52:58.000Z</time>
      </trkpt>
      <trkpt lat="47.58299" lon="7.38577">
        <ele>410</ele>
        <time>2016-08-21T05:53:05.000Z</time>
      </trkpt>
      <trkpt lat="47.58289" lon="7.38573">
        <ele>412</ele>
        <time>2016-08-21T05:53:13.000Z</time>
      </trkpt>
      <trkpt lat="47.58279" lon="7.38572">
        <ele>414</ele>
        <time>2016-08-21T05:53:21.000Z</time>
      </trkpt>
      <trkpt lat="47.5827" lon="7.38568">
        <ele>415</ele>
        <time>2016-08-21T05:53:29.000Z</time>
      </trkpt>
      <trkpt lat="47.58261" lon="7.38563">
        <ele>417</ele>
        <time>2016-08-21T05:53:36.000Z</time>
      </trkpt>
      <trkpt lat="47.58251" lon="7.3856">
        <ele>417</ele>
        <time>2016-08-21T05:53:44.000Z</time>
      </trkpt>
      <trkpt lat="47.58242" lon="7.38557">
        <ele>417</ele>
        <time>2016-08-21T05:53:52.000Z</time>
      </trkpt>
      <trkpt lat="47.58232" lon="7.38556">
        <ele>421</ele>
        <time>2016-08-21T05:54:00.000Z</time>
      </trkpt>
      <trkpt lat="47.58223" lon="7.38555">
        <ele>418</ele>
        <time>2016-08-21T05:54:07.000Z</time>
      </trkpt>
      <trkpt lat="47.58214" lon="7.38559">
        <ele>421</ele>
        <time>2016-08-21T05:54:15.000Z</time>
      </trkpt>
      <trkpt lat="47.58205" lon="7.38562">
        <ele>420</ele>
        <time>2016-08-21T05:54:23.000Z</time>
      </trkpt>
      <trkpt lat="47.58196" lon="7.38565">
        <ele>420</ele>
        <time>2016-08-21T05:54:32.000Z</time>
      </trkpt>
      <trkpt lat="47.58186" lon="7.38569">
        <ele>422</ele>
        <time>2016-08-21T05:54:40.000Z</time>
      </trkpt>
      <trkpt lat="47.58183" lon="7.38556">
        <ele>424</ele>
        <time>2016-08-21T05:54:51.000Z</time>
      </trkpt>
      <trkpt lat="47.58183" lon="7.38542">
        <ele>425</ele>
        <time>2016-08-21T05:54:59.000Z</time>
      </trkpt>
      <trkpt lat="47.58177" lon="7.38531">
        <ele>424</ele>
        <time>2016-08-21T05:55:06.000Z</time>
      </trkpt>
      <trkpt lat="47.58171" lon="7.3852">
        <ele>426</ele>
        <time>2016-08-21T05:55:13.000Z</time>
      </trkpt>
      <trkpt lat="47.58165" lon="7.38509">
        <ele>428</ele>
        <time>2016-08-21T05:55:20.000Z</time>
      </trkpt>
      <trkpt lat="47.5816" lon="7.38499">
        <ele>427</ele>
        <time>2016-08-21T05:55:27.000Z</time>
      </trkpt>
      <trkpt lat="47.58153" lon="7.38488">
        <ele>427</ele>
        <time>2016-08-21T05:55:35.000Z</time>
      </trkpt>
      <trkpt lat="47.58146" lon="7.38477">
        <ele>427</ele>
        <time>2016-08-21T05:55:43.000Z</time>
      </trkpt>
      <trkpt lat="47.58141" lon="7.38465">
        <ele>428</ele>
        <time>2016-08-21T05:55:50.000Z</time>
      </trkpt>
      <trkpt lat="47.58135" lon="7.38454">
        <ele>428</ele>
        <time>2016-08-21T05:55:57.000Z</time>
      </trkpt>
      <trkpt lat="47.5813" lon="7.38442">
        <ele>427</ele>
        <time>2016-08-21T05:56:04.000Z</time>
      </trkpt>
      <trkpt lat="47.58123" lon="7.38431">
        <ele>425</ele>
        <time>2016-08-21T05:56:12.000Z</time>
      </trkpt>
      <trkpt lat="47.58118" lon="7.38419">
        <ele>426</ele>
        <time>2016-08-21T05:56:19.000Z</time>
      </trkpt>
      <trkpt lat="47.58111" lon="7.38409">
        <ele>428</ele>
        <time>2016-08-21T05:56:25.000Z</time>
      </trkpt>
      <trkpt lat="47.58105" lon="7.38398">
        <ele>429</ele>
        <time>2016-08-21T05:56:32.000Z</time>
      </trkpt>
      <trkpt lat="47.58098" lon="7.38386">
        <ele>430</ele>
        <time>2016-08-21T05:56:39.000Z</time>
      </trkpt>
      <trkpt lat="47.58091" lon="7.38374">
        <ele>431</ele>
        <time>2016-08-21T05:56:47.000Z</time>
      </trkpt>
      <trkpt lat="47.58085" lon="7.38363">
        <ele>433</ele>
        <time>2016-08-21T05:56:54.000Z</time>
      </trkpt>
      <trkpt lat="47.58079" lon="7.38352">
        <ele>433</ele>
        <time>2016-08-21T05:57:01.000Z</time>
      </trkpt>
      <trkpt lat="47.58073" lon="7.38341">
        <ele>432</ele>
        <time>2016-08-21T05:57:08.000Z</time>
      </trkpt>
      <trkpt lat="47.58069" lon="7.3833">
        <ele>432</ele>
        <time>2016-08-21T05:57:15.000Z</time>
      </trkpt>
      <trkpt lat="47.58063" lon="7.38319">
        <ele>432</ele>
        <time>2016-08-21T05:57:22.000Z</time>
      </trkpt>
      <trkpt lat="47.58056" lon="7.38308">
        <ele>434</ele>
        <time>2016-08-21T05:57:29.000Z</time>
      </trkpt>
      <trkpt lat="47.5805" lon="7.38298">
        <ele>434</ele>
        <time>2016-08-21T05:57:36.000Z</time>
      </trkpt>
      <trkpt lat="47.58045" lon="7.38286">
        <ele>432</ele>
        <time>2016-08-21T05:57:43.000Z</time>
      </trkpt>
      <trkpt lat="47.58039" lon="7.38275">
        <ele>434</ele>
        <time>2016-08-21T05:57:50.000Z</time>
      </trkpt>
      <trkpt lat="47.58032" lon="7.38265">
        <ele>434</ele>
        <time>2016-08-21T05:57:57.000Z</time>
      </trkpt>
      <trkpt lat="47.58023" lon="7.38259">
        <ele>436</ele>
        <time>2016-08-21T05:58:04.000Z</time>
      </trkpt>
      <trkpt lat="47.58014" lon="7.38261">
        <ele>437</ele>
        <time>2016-08-21T05:58:11.000Z</time>
      </trkpt>
      <trkpt lat="47.58004" lon="7.38264">
        <ele>437</ele>
        <time>2016-08-21T05:58:17.000Z</time>
      </trkpt>
      <trkpt lat="47.57993" lon="7.38264">
        <ele>437</ele>
        <time>2016-08-21T05:58:25.000Z</time>
      </trkpt>
      <trkpt lat="47.57985" lon="7.38259">
        <ele>434</ele>
        <time>2016-08-21T05:58:32.000Z</time>
      </trkpt>
      <trkpt lat="47.57976" lon="7.38252">
        <ele>434</ele>
        <time>2016-08-21T05:58:39.000Z</time>
      </trkpt>
      <trkpt lat="47.57968" lon="7.38244">
        <ele>436</ele>
        <time>2016-08-21T05:58:46.000Z</time>
      </trkpt>
      <trkpt lat="47.57958" lon="7.38236">
        <ele>434</ele>
        <time>2016-08-21T05:58:54.000Z</time>
      </trkpt>
      <trkpt lat="47.57948" lon="7.38226">
        <ele>436</ele>
        <time>2016-08-21T05:59:03.000Z</time>
      </trkpt>
      <trkpt lat="47.57939" lon="7.38218">
        <ele>437</ele>
        <time>2016-08-21T05:59:11.000Z</time>
      </trkpt>
      <trkpt lat="47.57932" lon="7.38212">
        <ele>437</ele>
        <time>2016-08-21T05:59:18.000Z</time>
      </trkpt>
      <trkpt lat="47.57923" lon="7.38205">
        <ele>437</ele>
        <time>2016-08-21T05:59:25.000Z</time>
      </trkpt>
      <trkpt lat="47.57916" lon="7.38198">
        <ele>438</ele>
        <time>2016-08-21T05:59:34.000Z</time>
      </trkpt>
      <trkpt lat="47.57907" lon="7.38191">
        <ele>438</ele>
        <time>2016-08-21T05:59:41.000Z</time>
      </trkpt>
      <trkpt lat="47.57898" lon="7.38183">
        <ele>439</ele>
        <time>2016-08-21T05:59:48.000Z</time>
      </trkpt>
      <trkpt lat="47.57889" lon="7.38176">
        <ele>442</ele>
        <time>2016-08-21T05:59:55.000Z</time>
      </trkpt>
      <trkpt lat="47.5788" lon="7.38169">
        <ele>441</ele>
        <time>2016-08-21T06:00:02.000Z</time>
      </trkpt>
      <trkpt lat="47.57871" lon="7.38162">
        <ele>442</ele>
        <time>2016-08-21T06:00:09.000Z</time>
      </trkpt>
      <trkpt lat="47.57863" lon="7.38153">
        <ele>445</ele>
        <time>2016-08-21T06:00:16.000Z</time>
      </trkpt>
      <trkpt lat="47.57855" lon="7.38146">
        <ele>445</ele>
        <time>2016-08-21T06:00:23.000Z</time>
      </trkpt>
      <trkpt lat="47.57847" lon="7.38138">
        <ele>445</ele>
        <time>2016-08-21T06:00:31.000Z</time>
      </trkpt>
      <trkpt lat="47.57838" lon="7.38129">
        <ele>446</ele>
        <time>2016-08-21T06:00:39.000Z</time>
      </trkpt>
      <trkpt lat="47.57832" lon="7.38118">
        <ele>446</ele>
        <time>2016-08-21T06:00:47.000Z</time>
      </trkpt>
      <trkpt lat="47.57824" lon="7.38106">
        <ele>445</ele>
        <time>2016-08-21T06:00:55.000Z</time>
      </trkpt>
      <trkpt lat="47.57819" lon="7.38096">
        <ele>444</ele>
        <time>2016-08-21T06:01:02.000Z</time>
      </trkpt>
      <trkpt lat="47.57813" lon="7.38085">
        <ele>444</ele>
        <time>2016-08-21T06:01:09.000Z</time>
      </trkpt>
      <trkpt lat="47.57808" lon="7.38074">
        <ele>444</ele>
        <time>2016-08-21T06:01:16.000Z</time>
      </trkpt>
      <trkpt lat="47.57801" lon="7.38064">
        <ele>444</ele>
        <time>2016-08-21T06:01:23.000Z</time>
      </trkpt>
      <trkpt lat="47.57794" lon="7.38054">
        <ele>445</ele>
        <time>2016-08-21T06:01:30.000Z</time>
      </trkpt>
      <trkpt lat="47.57787" lon="7.38044">
        <ele>445</ele>
        <time>2016-08-21T06:01:37.000Z</time>
      </trkpt>
      <trkpt lat="47.57781" lon="7.38033">
        <ele>446</ele>
        <time>2016-08-21T06:01:44.000Z</time>
      </trkpt>
      <trkpt lat="47.57774" lon="7.38023">
        <ele>446</ele>
        <time>2016-08-21T06:01:51.000Z</time>
      </trkpt>
      <trkpt lat="47.57768" lon="7.38011">
        <ele>446</ele>
        <time>2016-08-21T06:01:58.000Z</time>
      </trkpt>
      <trkpt lat="47.57761" lon="7.38001">
        <ele>445</ele>
        <time>2016-08-21T06:02:05.000Z</time>
      </trkpt>
      <trkpt lat="47.57755" lon="7.37991">
        <ele>447</ele>
        <time>2016-08-21T06:02:12.000Z</time>
      </trkpt>
      <trkpt lat="47.57748" lon="7.3798">
        <ele>447</ele>
        <time>2016-08-21T06:02:19.000Z</time>
      </trkpt>
      <trkpt lat="47.57742" lon="7.37968">
        <ele>447</ele>
        <time>2016-08-21T06:02:26.000Z</time>
      </trkpt>
      <trkpt lat="47.57736" lon="7.37956">
        <ele>447</ele>
        <time>2016-08-21T06:02:33.000Z</time>
      </trkpt>
      <trkpt lat="47.5773" lon="7.37944">
        <ele>448</ele>
        <time>2016-08-21T06:02:40.000Z</time>
      </trkpt>
      <trkpt lat="47.57724" lon="7.37933">
        <ele>448</ele>
        <time>2016-08-21T06:02:46.000Z</time>
      </trkpt>
      <trkpt lat="47.57719" lon="7.37921">
        <ele>447</ele>
        <time>2016-08-21T06:02:52.000Z</time>
      </trkpt>
      <trkpt lat="47.57713" lon="7.37909">
        <ele>446</ele>
        <time>2016-08-21T06:02:58.000Z</time>
      </trkpt>
      <trkpt lat="47.57707" lon="7.37896">
        <ele>447</ele>
        <time>2016-08-21T06:03:04.000Z</time>
      </trkpt>
      <trkpt lat="47.57701" lon="7.37885">
        <ele>448</ele>
        <time>2016-08-21T06:03:09.000Z</time>
      </trkpt>
      <trkpt lat="47.57695" lon="7.37872">
        <ele>448</ele>
        <time>2016-08-21T06:03:15.000Z</time>
      </trkpt>
      <trkpt lat="47.5769" lon="7.3786">
        <ele>447</ele>
        <time>2016-08-21T06:03:21.000Z</time>
      </trkpt>
      <trkpt lat="47.57685" lon="7.37848">
        <ele>449</ele>
        <time>2016-08-21T06:03:27.000Z</time>
      </trkpt>
      <trkpt lat="47.5768" lon="7.37835">
        <ele>448</ele>
        <time>2016-08-21T06:03:34.000Z</time>
      </trkpt>
      <trkpt lat="47.57674" lon="7.37823">
        <ele>448</ele>
        <time>2016-08-21T06:03:40.000Z</time>
      </trkpt>
      <trkpt lat="47.57669" lon="7.37812">
        <ele>448</ele>
        <time>2016-08-21T06:03:46.000Z</time>
      </trkpt>
      <trkpt lat="47.57662" lon="7.37799">
        <ele>447</ele>
        <time>2016-08-21T06:03:53.000Z</time>
      </trkpt>
      <trkpt lat="47.57657" lon="7.37786">
        <ele>447</ele>
        <time>2016-08-21T06:04:00.000Z</time>
      </trkpt>
      <trkpt lat="47.57652" lon="7.37773">
        <ele>447</ele>
        <time>2016-08-21T06:04:07.000Z</time>
      </trkpt>
      <trkpt lat="47.57648" lon="7.37761">
        <ele>445</ele>
        <time>2016-08-21T06:04:13.000Z</time>
      </trkpt>
      <trkpt lat="47.57642" lon="7.37749">
        <ele>446</ele>
        <time>2016-08-21T06:04:19.000Z</time>
      </trkpt>
      <trkpt lat="47.57637" lon="7.37738">
        <ele>447</ele>
        <time>2016-08-21T06:04:25.000Z</time>
      </trkpt>
      <trkpt lat="47.57632" lon="7.37725">
        <ele>448</ele>
        <time>2016-08-21T06:04:31.000Z</time>
      </trkpt>
      <trkpt lat="47.57628" lon="7.37713">
        <ele>448</ele>
        <time>2016-08-21T06:04:37.000Z</time>
      </trkpt>
      <trkpt lat="47.57623" lon="7.37701">
        <ele>448</ele>
        <time>2016-08-21T06:04:43.000Z</time>
      </trkpt>
      <trkpt lat="47.57618" lon="7.37689">
        <ele>449</ele>
        <time>2016-08-21T06:04:49.000Z</time>
      </trkpt>
      <trkpt lat="47.57612" lon="7.37675">
        <ele>450</ele>
        <time>2016-08-21T06:04:56.000Z</time>
      </trkpt>
      <trkpt lat="47.57607" lon="7.37663">
        <ele>452</ele>
        <time>2016-08-21T06:05:02.000Z</time>
      </trkpt>
      <trkpt lat="47.57603" lon="7.37649">
        <ele>453</ele>
        <time>2016-08-21T06:05:09.000Z</time>
      </trkpt>
      <trkpt lat="47.57599" lon="7.37635">
        <ele>454</ele>
        <time>2016-08-21T06:05:16.000Z</time>
      </trkpt>
      <trkpt lat="47.57595" lon="7.37621">
        <ele>456</ele>
        <time>2016-08-21T06:05:23.000Z</time>
      </trkpt>
      <trkpt lat="47.57591" lon="7.37608">
        <ele>457</ele>
        <time>2016-08-21T06:05:30.000Z</time>
      </trkpt>
      <trkpt lat="47.57587" lon="7.37594">
        <ele>458</ele>
        <time>2016-08-21T06:05:37.000Z</time>
      </trkpt>
      <trkpt lat="47.57583" lon="7.37582">
        <ele>459</ele>
        <time>2016-08-21T06:05:43.000Z</time>
      </trkpt>
      <trkpt lat="47.57578" lon="7.3757">
        <ele>460</ele>
        <time>2016-08-21T06:05:49.000Z</time>
      </trkpt>
      <trkpt lat="47.57575" lon="7.37554">
        <ele>465</ele>
        <time>2016-08-21T06:05:57.000Z</time>
      </trkpt>
      <trkpt lat="47.57571" lon="7.37541">
        <ele>465</ele>
        <time>2016-08-21T06:06:04.000Z</time>
      </trkpt>
      <trkpt lat="47.57567" lon="7.37528">
        <ele>468</ele>
        <time>2016-08-21T06:06:11.000Z</time>
      </trkpt>
      <trkpt lat="47.57563" lon="7.37516">
        <ele>469</ele>
        <time>2016-08-21T06:06:17.000Z</time>
      </trkpt>
      <trkpt lat="47.57558" lon="7.37503">
        <ele>470</ele>
        <time>2016-08-21T06:06:23.000Z</time>
      </trkpt>
      <trkpt lat="47.57554" lon="7.3749">
        <ele>469</ele>
        <time>2016-08-21T06:06:29.000Z</time>
      </trkpt>
      <trkpt lat="47.5755" lon="7.37475">
        <ele>467</ele>
        <time>2016-08-21T06:06:36.000Z</time>
      </trkpt>
      <trkpt lat="47.57546" lon="7.37463">
        <ele>469</ele>
        <time>2016-08-21T06:06:42.000Z</time>
      </trkpt>
      <trkpt lat="47.57542" lon="7.3745">
        <ele>470</ele>
        <time>2016-08-21T06:06:48.000Z</time>
      </trkpt>
      <trkpt lat="47.57538" lon="7.37438">
        <ele>471</ele>
        <time>2016-08-21T06:06:54.000Z</time>
      </trkpt>
      <trkpt lat="47.57533" lon="7.37424">
        <ele>471</ele>
        <time>2016-08-21T06:07:01.000Z</time>
      </trkpt>
      <trkpt lat="47.57528" lon="7.37411">
        <ele>471</ele>
        <time>2016-08-21T06:07:08.000Z</time>
      </trkpt>
      <trkpt lat="47.57523" lon="7.37395">
        <ele>474</ele>
        <time>2016-08-21T06:07:16.000Z</time>
      </trkpt>
      <trkpt lat="47.57518" lon="7.37381">
        <ele>474</ele>
        <time>2016-08-21T06:07:23.000Z</time>
      </trkpt>
      <trkpt lat="47.57514" lon="7.37369">
        <ele>474</ele>
        <time>2016-08-21T06:07:29.000Z</time>
      </trkpt>
      <trkpt lat="47.57509" lon="7.37358">
        <ele>473</ele>
        <time>2016-08-21T06:07:35.000Z</time>
      </trkpt>
      <trkpt lat="47.57499" lon="7.37356">
        <ele>474</ele>
        <time>2016-08-21T06:07:41.000Z</time>
      </trkpt>
      <trkpt lat="47.57489" lon="7.37357">
        <ele>478</ele>
        <time>2016-08-21T06:07:47.000Z</time>
      </trkpt>
      <trkpt lat="47.5748" lon="7.37352">
        <ele>478</ele>
        <time>2016-08-21T06:07:53.000Z</time>
      </trkpt>
      <trkpt lat="47.57473" lon="7.37343">
        <ele>477</ele>
        <time>2016-08-21T06:08:03.000Z</time>
      </trkpt>
      <trkpt lat="47.57466" lon="7.37334">
        <ele>477</ele>
        <time>2016-08-21T06:08:43.000Z</time>
      </trkpt>
      <trkpt lat="47.57459" lon="7.37322">
        <ele>476</ele>
        <time>2016-08-21T06:09:16.000Z</time>
      </trkpt>
      <trkpt lat="47.57453" lon="7.37313">
        <ele>476</ele>
        <time>2016-08-21T06:09:22.000Z</time>
      </trkpt>
      <trkpt lat="47.57446" lon="7.37303">
        <ele>476</ele>
        <time>2016-08-21T06:09:28.000Z</time>
      </trkpt>
      <trkpt lat="47.57438" lon="7.37294">
        <ele>478</ele>
        <time>2016-08-21T06:09:35.000Z</time>
      </trkpt>
      <trkpt lat="47.57431" lon="7.37284">
        <ele>478</ele>
        <time>2016-08-21T06:09:42.000Z</time>
      </trkpt>
      <trkpt lat="47.57425" lon="7.37273">
        <ele>478</ele>
        <time>2016-08-21T06:09:49.000Z</time>
      </trkpt>
      <trkpt lat="47.57418" lon="7.37262">
        <ele>479</ele>
        <time>2016-08-21T06:09:56.000Z</time>
      </trkpt>
      <trkpt lat="47.5741" lon="7.37252">
        <ele>480</ele>
        <time>2016-08-21T06:10:08.000Z</time>
      </trkpt>
      <trkpt lat="47.57404" lon="7.37243">
        <ele>480</ele>
        <time>2016-08-21T06:10:14.000Z</time>
      </trkpt>
      <trkpt lat="47.57397" lon="7.37234">
        <ele>482</ele>
        <time>2016-08-21T06:10:23.000Z</time>
      </trkpt>
      <trkpt lat="47.57389" lon="7.37223">
        <ele>483</ele>
        <time>2016-08-21T06:10:29.000Z</time>
      </trkpt>
      <trkpt lat="47.57382" lon="7.37213">
        <ele>480</ele>
        <time>2016-08-21T06:10:35.000Z</time>
      </trkpt>
      <trkpt lat="47.57376" lon="7.37202">
        <ele>479</ele>
        <time>2016-08-21T06:10:41.000Z</time>
      </trkpt>
      <trkpt lat="47.57368" lon="7.37191">
        <ele>478</ele>
        <time>2016-08-21T06:10:47.000Z</time>
      </trkpt>
      <trkpt lat="47.5736" lon="7.37181">
        <ele>477</ele>
        <time>2016-08-21T06:10:52.000Z</time>
      </trkpt>
      <trkpt lat="47.57353" lon="7.3717">
        <ele>478</ele>
        <time>2016-08-21T06:10:57.000Z</time>
      </trkpt>
      <trkpt lat="47.57344" lon="7.37156">
        <ele>478</ele>
        <time>2016-08-21T06:11:03.000Z</time>
      </trkpt>
      <trkpt lat="47.57337" lon="7.37147">
        <ele>477</ele>
        <time>2016-08-21T06:11:06.000Z</time>
      </trkpt>
      <trkpt lat="47.57328" lon="7.37132">
        <ele>480</ele>
        <time>2016-08-21T06:11:11.000Z</time>
      </trkpt>
      <trkpt lat="47.57322" lon="7.3712">
        <ele>480</ele>
        <time>2016-08-21T06:11:15.000Z</time>
      </trkpt>
      <trkpt lat="47.57315" lon="7.3711">
        <ele>480</ele>
        <time>2016-08-21T06:11:19.000Z</time>
      </trkpt>
      <trkpt lat="47.57307" lon="7.37101">
        <ele>481</ele>
        <time>2016-08-21T06:11:24.000Z</time>
      </trkpt>
      <trkpt lat="47.57299" lon="7.37092">
        <ele>481</ele>
        <time>2016-08-21T06:11:29.000Z</time>
      </trkpt>
      <trkpt lat="47.57291" lon="7.37083">
        <ele>480</ele>
        <time>2016-08-21T06:11:33.000Z</time>
      </trkpt>
      <trkpt lat="47.57283" lon="7.37075">
        <ele>481</ele>
        <time>2016-08-21T06:11:37.000Z</time>
      </trkpt>
      <trkpt lat="47.57273" lon="7.37065">
        <ele>481</ele>
        <time>2016-08-21T06:11:42.000Z</time>
      </trkpt>
      <trkpt lat="47.57266" lon="7.37055">
        <ele>481</ele>
        <time>2016-08-21T06:11:46.000Z</time>
      </trkpt>
      <trkpt lat="47.57258" lon="7.37046">
        <ele>481</ele>
        <time>2016-08-21T06:11:50.000Z</time>
      </trkpt>
      <trkpt lat="47.57251" lon="7.37038">
        <ele>481</ele>
        <time>2016-08-21T06:11:54.000Z</time>
      </trkpt>
      <trkpt lat="47.57242" lon="7.37028">
        <ele>481</ele>
        <time>2016-08-21T06:11:59.000Z</time>
      </trkpt>
      <trkpt lat="47.57233" lon="7.37019">
        <ele>480</ele>
        <time>2016-08-21T06:12:04.000Z</time>
      </trkpt>
      <trkpt lat="47.57225" lon="7.37009">
        <ele>479</ele>
        <time>2016-08-21T06:12:09.000Z</time>
      </trkpt>
      <trkpt lat="47.57216" lon="7.37">
        <ele>477</ele>
        <time>2016-08-21T06:12:14.000Z</time>
      </trkpt>
      <trkpt lat="47.57208" lon="7.3699">
        <ele>476</ele>
        <time>2016-08-21T06:12:19.000Z</time>
      </trkpt>
      <trkpt lat="47.57201" lon="7.36979">
        <ele>478</ele>
        <time>2016-08-21T06:12:24.000Z</time>
      </trkpt>
      <trkpt lat="47.57192" lon="7.36965">
        <ele>476</ele>
        <time>2016-08-21T06:12:30.000Z</time>
      </trkpt>
      <trkpt lat="47.57194" lon="7.36951">
        <ele>475</ele>
        <time>2016-08-21T06:12:34.000Z</time>
      </trkpt>
      <trkpt lat="47.57199" lon="7.36936">
        <ele>474</ele>
        <time>2016-08-21T06:12:38.000Z</time>
      </trkpt>
      <trkpt lat="47.57204" lon="7.36923">
        <ele>473</ele>
        <time>2016-08-21T06:12:42.000Z</time>
      </trkpt>
      <trkpt lat="47.57208" lon="7.3691">
        <ele>472</ele>
        <time>2016-08-21T06:12:47.000Z</time>
      </trkpt>
      <trkpt lat="47.57213" lon="7.36896">
        <ele>472</ele>
        <time>2016-08-21T06:12:52.000Z</time>
      </trkpt>
      <trkpt lat="47.57219" lon="7.36881">
        <ele>468</ele>
        <time>2016-08-21T06:12:56.000Z</time>
      </trkpt>
      <trkpt lat="47.57223" lon="7.36866">
        <ele>468</ele>
        <time>2016-08-21T06:13:00.000Z</time>
      </trkpt>
      <trkpt lat="47.57226" lon="7.36851">
        <ele>468</ele>
        <time>2016-08-21T06:13:04.000Z</time>
      </trkpt>
      <trkpt lat="47.57229" lon="7.36837">
        <ele>468</ele>
        <time>2016-08-21T06:13:08.000Z</time>
      </trkpt>
      <trkpt lat="47.57234" lon="7.36824">
        <ele>470</ele>
        <time>2016-08-21T06:13:12.000Z</time>
      </trkpt>
      <trkpt lat="47.57238" lon="7.36809">
        <ele>471</ele>
        <time>2016-08-21T06:13:16.000Z</time>
      </trkpt>
      <trkpt lat="47.57241" lon="7.36794">
        <ele>472</ele>
        <time>2016-08-21T06:13:20.000Z</time>
      </trkpt>
      <trkpt lat="47.57246" lon="7.36779">
        <ele>471</ele>
        <time>2016-08-21T06:13:24.000Z</time>
      </trkpt>
      <trkpt lat="47.57249" lon="7.36765">
        <ele>473</ele>
        <time>2016-08-21T06:13:28.000Z</time>
      </trkpt>
      <trkpt lat="47.57253" lon="7.36752">
        <ele>476</ele>
        <time>2016-08-21T06:13:34.000Z</time>
      </trkpt>
      <trkpt lat="47.57258" lon="7.36739">
        <ele>478</ele>
        <time>2016-08-21T06:13:40.000Z</time>
      </trkpt>
      <trkpt lat="47.57262" lon="7.36727">
        <ele>476</ele>
        <time>2016-08-21T06:13:46.000Z</time>
      </trkpt>
      <trkpt lat="47.57265" lon="7.36712">
        <ele>477</ele>
        <time>2016-08-21T06:13:52.000Z</time>
      </trkpt>
      <trkpt lat="47.57269" lon="7.36697">
        <ele>476</ele>
        <time>2016-08-21T06:13:58.000Z</time>
      </trkpt>
      <trkpt lat="47.57272" lon="7.36684">
        <ele>476</ele>
        <time>2016-08-21T06:14:03.000Z</time>
      </trkpt>
      <trkpt lat="47.57275" lon="7.36671">
        <ele>477</ele>
        <time>2016-08-21T06:14:08.000Z</time>
      </trkpt>
      <trkpt lat="47.57277" lon="7.36657">
        <ele>475</ele>
        <time>2016-08-21T06:14:13.000Z</time>
      </trkpt>
      <trkpt lat="47.57282" lon="7.36641">
        <ele>477</ele>
        <time>2016-08-21T06:14:20.000Z</time>
      </trkpt>
      <trkpt lat="47.57285" lon="7.36627">
        <ele>475</ele>
        <time>2016-08-21T06:14:26.000Z</time>
      </trkpt>
      <trkpt lat="47.5729" lon="7.36615">
        <ele>472</ele>
        <time>2016-08-21T06:14:32.000Z</time>
      </trkpt>
      <trkpt lat="47.57294" lon="7.36601">
        <ele>472</ele>
        <time>2016-08-21T06:14:38.000Z</time>
      </trkpt>
      <trkpt lat="47.57298" lon="7.36588">
        <ele>471</ele>
        <time>2016-08-21T06:14:44.000Z</time>
      </trkpt>
      <trkpt lat="47.57303" lon="7.36575">
        <ele>470</ele>
        <time>2016-08-21T06:14:50.000Z</time>
      </trkpt>
      <trkpt lat="47.57306" lon="7.36563">
        <ele>471</ele>
        <time>2016-08-21T06:14:56.000Z</time>
      </trkpt>
      <trkpt lat="47.5731" lon="7.36548">
        <ele>475</ele>
        <time>2016-08-21T06:15:03.000Z</time>
      </trkpt>
      <trkpt lat="47.57313" lon="7.36533">
        <ele>472</ele>
        <time>2016-08-21T06:15:09.000Z</time>
      </trkpt>
      <trkpt lat="47.57317" lon="7.3652">
        <ele>471</ele>
        <time>2016-08-21T06:15:15.000Z</time>
      </trkpt>
      <trkpt lat="47.57321" lon="7.36507">
        <ele>470</ele>
        <time>2016-08-21T06:15:21.000Z</time>
      </trkpt>
      <trkpt lat="47.57326" lon="7.36493">
        <ele>468</ele>
        <time>2016-08-21T06:15:27.000Z</time>
      </trkpt>
      <trkpt lat="47.57329" lon="7.3648">
        <ele>470</ele>
        <time>2016-08-21T06:15:32.000Z</time>
      </trkpt>
      <trkpt lat="47.57332" lon="7.36466">
        <ele>471</ele>
        <time>2016-08-21T06:15:38.000Z</time>
      </trkpt>
      <trkpt lat="47.57333" lon="7.36451">
        <ele>475</ele>
        <time>2016-08-21T06:15:45.000Z</time>
      </trkpt>
      <trkpt lat="47.57336" lon="7.36437">
        <ele>475</ele>
        <time>2016-08-21T06:15:52.000Z</time>
      </trkpt>
      <trkpt lat="47.5734" lon="7.36422">
        <ele>474</ele>
        <time>2016-08-21T06:15:58.000Z</time>
      </trkpt>
      <trkpt lat="47.57343" lon="7.36407">
        <ele>471</ele>
        <time>2016-08-21T06:16:04.000Z</time>
      </trkpt>
      <trkpt lat="47.57344" lon="7.36393">
        <ele>472</ele>
        <time>2016-08-21T06:16:10.000Z</time>
      </trkpt>
      <trkpt lat="47.57346" lon="7.3638">
        <ele>470</ele>
        <time>2016-08-21T06:16:16.000Z</time>
      </trkpt>
      <trkpt lat="47.57348" lon="7.36364">
        <ele>471</ele>
        <time>2016-08-21T06:16:22.000Z</time>
      </trkpt>
      <trkpt lat="47.57349" lon="7.3635">
        <ele>472</ele>
        <time>2016-08-21T06:16:28.000Z</time>
      </trkpt>
      <trkpt lat="47.5735" lon="7.36335">
        <ele>472</ele>
        <time>2016-08-21T06:16:34.000Z</time>
      </trkpt>
      <trkpt lat="47.57352" lon="7.3632">
        <ele>471</ele>
        <time>2016-08-21T06:16:40.000Z</time>
      </trkpt>
      <trkpt lat="47.57354" lon="7.36307">
        <ele>472</ele>
        <time>2016-08-21T06:16:46.000Z</time>
      </trkpt>
      <trkpt lat="47.57357" lon="7.36294">
        <ele>470</ele>
        <time>2016-08-21T06:16:52.000Z</time>
      </trkpt>
      <trkpt lat="47.57367" lon="7.36292">
        <ele>472</ele>
        <time>2016-08-21T06:17:00.000Z</time>
      </trkpt>
      <trkpt lat="47.57384" lon="7.36302">
        <ele>478</ele>
        <time>2016-08-21T07:03:31.000Z</time>
      </trkpt>
      <trkpt lat="47.57375" lon="7.36296">
        <ele>482</ele>
        <time>2016-08-21T07:03:42.000Z</time>
      </trkpt>
      <trkpt lat="47.57367" lon="7.3629">
        <ele>478</ele>
        <time>2016-08-21T07:03:51.000Z</time>
      </trkpt>
      <trkpt lat="47.57358" lon="7.36282">
        <ele>477</ele>
        <time>2016-08-21T07:04:00.000Z</time>
      </trkpt>
      <trkpt lat="47.57357" lon="7.36268">
        <ele>478</ele>
        <time>2016-08-21T07:04:07.000Z</time>
      </trkpt>
      <trkpt lat="47.57357" lon="7.36253">
        <ele>479</ele>
        <time>2016-08-21T07:04:15.000Z</time>
      </trkpt>
      <trkpt lat="47.57361" lon="7.36239">
        <ele>478</ele>
        <time>2016-08-21T07:04:23.000Z</time>
      </trkpt>
      <trkpt lat="47.57364" lon="7.36225">
        <ele>476</ele>
        <time>2016-08-21T07:04:30.000Z</time>
      </trkpt>
      <trkpt lat="47.57365" lon="7.36211">
        <ele>476</ele>
        <time>2016-08-21T07:04:37.000Z</time>
      </trkpt>
      <trkpt lat="47.57362" lon="7.36198">
        <ele>476</ele>
        <time>2016-08-21T07:04:42.000Z</time>
      </trkpt>
      <trkpt lat="47.57368" lon="7.36188">
        <ele>475</ele>
        <time>2016-08-21T07:04:49.000Z</time>
      </trkpt>
      <trkpt lat="47.57367" lon="7.36172">
        <ele>473</ele>
        <time>2016-08-21T07:04:57.000Z</time>
      </trkpt>
      <trkpt lat="47.57366" lon="7.36158">
        <ele>474</ele>
        <time>2016-08-21T07:05:03.000Z</time>
      </trkpt>
      <trkpt lat="47.57369" lon="7.36143">
        <ele>473</ele>
        <time>2016-08-21T07:05:10.000Z</time>
      </trkpt>
      <trkpt lat="47.57369" lon="7.3613">
        <ele>474</ele>
        <time>2016-08-21T07:05:17.000Z</time>
      </trkpt>
      <trkpt lat="47.5737" lon="7.36114">
        <ele>473</ele>
        <time>2016-08-21T07:05:24.000Z</time>
      </trkpt>
      <trkpt lat="47.57373" lon="7.36101">
        <ele>472</ele>
        <time>2016-08-21T07:05:34.000Z</time>
      </trkpt>
      <trkpt lat="47.57378" lon="7.36088">
        <ele>470</ele>
        <time>2016-08-21T07:05:43.000Z</time>
      </trkpt>
      <trkpt lat="47.57383" lon="7.36075">
        <ele>469</ele>
        <time>2016-08-21T07:05:50.000Z</time>
      </trkpt>
      <trkpt lat="47.57388" lon="7.36063">
        <ele>467</ele>
        <time>2016-08-21T07:05:56.000Z</time>
      </trkpt>
      <trkpt lat="47.57391" lon="7.3605">
        <ele>464</ele>
        <time>2016-08-21T07:06:01.000Z</time>
      </trkpt>
      <trkpt lat="47.57396" lon="7.36039">
        <ele>468</ele>
        <time>2016-08-21T07:06:07.000Z</time>
      </trkpt>
      <trkpt lat="47.57398" lon="7.36025">
        <ele>465</ele>
        <time>2016-08-21T07:06:13.000Z</time>
      </trkpt>
      <trkpt lat="47.57402" lon="7.36012">
        <ele>465</ele>
        <time>2016-08-21T07:06:22.000Z</time>
      </trkpt>
      <trkpt lat="47.57408" lon="7.35999">
        <ele>469</ele>
        <time>2016-08-21T07:06:30.000Z</time>
      </trkpt>
      <trkpt lat="47.57413" lon="7.35985">
        <ele>471</ele>
        <time>2016-08-21T07:06:37.000Z</time>
      </trkpt>
      <trkpt lat="47.57417" lon="7.35971">
        <ele>475</ele>
        <time>2016-08-21T07:06:44.000Z</time>
      </trkpt>
      <trkpt lat="47.57418" lon="7.35958">
        <ele>475</ele>
        <time>2016-08-21T07:06:50.000Z</time>
      </trkpt>
      <trkpt lat="47.57424" lon="7.35946">
        <ele>474</ele>
        <time>2016-08-21T07:06:55.000Z</time>
      </trkpt>
      <trkpt lat="47.57428" lon="7.35933">
        <ele>471</ele>
        <time>2016-08-21T07:07:03.000Z</time>
      </trkpt>
      <trkpt lat="47.57429" lon="7.35918">
        <ele>476</ele>
        <time>2016-08-21T07:07:12.000Z</time>
      </trkpt>
      <trkpt lat="47.57434" lon="7.35905">
        <ele>474</ele>
        <time>2016-08-21T07:07:19.000Z</time>
      </trkpt>
      <trkpt lat="47.57438" lon="7.35893">
        <ele>475</ele>
        <time>2016-08-21T07:07:26.000Z</time>
      </trkpt>
      <trkpt lat="47.57445" lon="7.35881">
        <ele>476</ele>
        <time>2016-08-21T07:07:33.000Z</time>
      </trkpt>
      <trkpt lat="47.57449" lon="7.35869">
        <ele>470</ele>
        <time>2016-08-21T07:07:41.000Z</time>
      </trkpt>
      <trkpt lat="47.57449" lon="7.35855">
        <ele>474</ele>
        <time>2016-08-21T07:07:47.000Z</time>
      </trkpt>
      <trkpt lat="47.57451" lon="7.35842">
        <ele>478</ele>
        <time>2016-08-21T07:07:52.000Z</time>
      </trkpt>
      <trkpt lat="47.57452" lon="7.35828">
        <ele>477</ele>
        <time>2016-08-21T07:08:00.000Z</time>
      </trkpt>
      <trkpt lat="47.57457" lon="7.35815">
        <ele>476</ele>
        <time>2016-08-21T07:08:07.000Z</time>
      </trkpt>
      <trkpt lat="47.57463" lon="7.35803">
        <ele>475</ele>
        <time>2016-08-21T07:08:13.000Z</time>
      </trkpt>
      <trkpt lat="47.57466" lon="7.3579">
        <ele>473</ele>
        <time>2016-08-21T07:08:20.000Z</time>
      </trkpt>
      <trkpt lat="47.57469" lon="7.35777">
        <ele>468</ele>
        <time>2016-08-21T07:08:26.000Z</time>
      </trkpt>
      <trkpt lat="47.5747" lon="7.35763">
        <ele>473</ele>
        <time>2016-08-21T07:08:34.000Z</time>
      </trkpt>
      <trkpt lat="47.57475" lon="7.35751">
        <ele>473</ele>
        <time>2016-08-21T07:08:40.000Z</time>
      </trkpt>
      <trkpt lat="47.57479" lon="7.35739">
        <ele>474</ele>
        <time>2016-08-21T07:08:47.000Z</time>
      </trkpt>
      <trkpt lat="47.57482" lon="7.35725">
        <ele>478</ele>
        <time>2016-08-21T07:08:54.000Z</time>
      </trkpt>
      <trkpt lat="47.57484" lon="7.35711">
        <ele>480</ele>
        <time>2016-08-21T07:09:00.000Z</time>
      </trkpt>
      <trkpt lat="47.57489" lon="7.35699">
        <ele>478</ele>
        <time>2016-08-21T07:09:08.000Z</time>
      </trkpt>
      <trkpt lat="47.57493" lon="7.35687">
        <ele>483</ele>
        <time>2016-08-21T07:09:13.000Z</time>
      </trkpt>
      <trkpt lat="47.57497" lon="7.35671">
        <ele>483</ele>
        <time>2016-08-21T07:09:25.000Z</time>
      </trkpt>
      <trkpt lat="47.57501" lon="7.35657">
        <ele>482</ele>
        <time>2016-08-21T07:09:32.000Z</time>
      </trkpt>
      <trkpt lat="47.57502" lon="7.35642">
        <ele>479</ele>
        <time>2016-08-21T07:09:38.000Z</time>
      </trkpt>
      <trkpt lat="47.57505" lon="7.35629">
        <ele>476</ele>
        <time>2016-08-21T07:09:44.000Z</time>
      </trkpt>
      <trkpt lat="47.57511" lon="7.35617">
        <ele>476</ele>
        <time>2016-08-21T07:09:51.000Z</time>
      </trkpt>
      <trkpt lat="47.57513" lon="7.35604">
        <ele>474</ele>
        <time>2016-08-21T07:09:58.000Z</time>
      </trkpt>
      <trkpt lat="47.57518" lon="7.35593">
        <ele>471</ele>
        <time>2016-08-21T07:10:03.000Z</time>
      </trkpt>
      <trkpt lat="47.57524" lon="7.35583">
        <ele>470</ele>
        <time>2016-08-21T07:10:08.000Z</time>
      </trkpt>
      <trkpt lat="47.57534" lon="7.35578">
        <ele>471</ele>
        <time>2016-08-21T07:10:14.000Z</time>
      </trkpt>
      <trkpt lat="47.57545" lon="7.35577">
        <ele>472</ele>
        <time>2016-08-21T07:10:21.000Z</time>
      </trkpt>
      <trkpt lat="47.57555" lon="7.35576">
        <ele>470</ele>
        <time>2016-08-21T07:10:28.000Z</time>
      </trkpt>
      <trkpt lat="47.57565" lon="7.35574">
        <ele>474</ele>
        <time>2016-08-21T07:10:34.000Z</time>
      </trkpt>
      <trkpt lat="47.57574" lon="7.35576">
        <ele>472</ele>
        <time>2016-08-21T07:11:18.000Z</time>
      </trkpt>
      <trkpt lat="47.57582" lon="7.35584">
        <ele>471</ele>
        <time>2016-08-21T07:11:24.000Z</time>
      </trkpt>
      <trkpt lat="47.57592" lon="7.35588">
        <ele>475</ele>
        <time>2016-08-21T07:11:32.000Z</time>
      </trkpt>
      <trkpt lat="47.57602" lon="7.35589">
        <ele>476</ele>
        <time>2016-08-21T07:11:38.000Z</time>
      </trkpt>
      <trkpt lat="47.57612" lon="7.35591">
        <ele>477</ele>
        <time>2016-08-21T07:11:43.000Z</time>
      </trkpt>
      <trkpt lat="47.57621" lon="7.35596">
        <ele>477</ele>
        <time>2016-08-21T07:11:49.000Z</time>
      </trkpt>
      <trkpt lat="47.57631" lon="7.35601">
        <ele>479</ele>
        <time>2016-08-21T07:11:56.000Z</time>
      </trkpt>
      <trkpt lat="47.57642" lon="7.35606">
        <ele>479</ele>
        <time>2016-08-21T07:12:03.000Z</time>
      </trkpt>
      <trkpt lat="47.57652" lon="7.35611">
        <ele>477</ele>
        <time>2016-08-21T07:12:09.000Z</time>
      </trkpt>
      <trkpt lat="47.57661" lon="7.35616">
        <ele>479</ele>
        <time>2016-08-21T07:12:15.000Z</time>
      </trkpt>
      <trkpt lat="47.57671" lon="7.3562">
        <ele>478</ele>
        <time>2016-08-21T07:12:21.000Z</time>
      </trkpt>
      <trkpt lat="47.5768" lon="7.35626">
        <ele>477</ele>
        <time>2016-08-21T07:12:27.000Z</time>
      </trkpt>
      <trkpt lat="47.57689" lon="7.3563">
        <ele>476</ele>
        <time>2016-08-21T07:12:33.000Z</time>
      </trkpt>
      <trkpt lat="47.57698" lon="7.35636">
        <ele>476</ele>
        <time>2016-08-21T07:12:40.000Z</time>
      </trkpt>
      <trkpt lat="47.57707" lon="7.3564">
        <ele>474</ele>
        <time>2016-08-21T07:12:46.000Z</time>
      </trkpt>
      <trkpt lat="47.57716" lon="7.35644">
        <ele>474</ele>
        <time>2016-08-21T07:12:52.000Z</time>
      </trkpt>
      <trkpt lat="47.57726" lon="7.3565">
        <ele>473</ele>
        <time>2016-08-21T07:12:58.000Z</time>
      </trkpt>
      <trkpt lat="47.57734" lon="7.35656">
        <ele>472</ele>
        <time>2016-08-21T07:13:04.000Z</time>
      </trkpt>
      <trkpt lat="47.57744" lon="7.35659">
        <ele>472</ele>
        <time>2016-08-21T07:13:11.000Z</time>
      </trkpt>
      <trkpt lat="47.57753" lon="7.35665">
        <ele>468</ele>
        <time>2016-08-21T07:13:19.000Z</time>
      </trkpt>
      <trkpt lat="47.57763" lon="7.35669">
        <ele>466</ele>
        <time>2016-08-21T07:13:27.000Z</time>
      </trkpt>
      <trkpt lat="47.57772" lon="7.35673">
        <ele>467</ele>
        <time>2016-08-21T07:13:36.000Z</time>
      </trkpt>
      <trkpt lat="47.57781" lon="7.35678">
        <ele>468</ele>
        <time>2016-08-21T07:13:42.000Z</time>
      </trkpt>
      <trkpt lat="47.5779" lon="7.35682">
        <ele>469</ele>
        <time>2016-08-21T07:13:48.000Z</time>
      </trkpt>
      <trkpt lat="47.57799" lon="7.35687">
        <ele>469</ele>
        <time>2016-08-21T07:13:56.000Z</time>
      </trkpt>
      <trkpt lat="47.57807" lon="7.35694">
        <ele>468</ele>
        <time>2016-08-21T07:14:04.000Z</time>
      </trkpt>
      <trkpt lat="47.57816" lon="7.35697">
        <ele>473</ele>
        <time>2016-08-21T07:14:11.000Z</time>
      </trkpt>
      <trkpt lat="47.57826" lon="7.35699">
        <ele>475</ele>
        <time>2016-08-21T07:14:20.000Z</time>
      </trkpt>
      <trkpt lat="47.57836" lon="7.35698">
        <ele>471</ele>
        <time>2016-08-21T07:14:26.000Z</time>
      </trkpt>
      <trkpt lat="47.57843" lon="7.35688">
        <ele>468</ele>
        <time>2016-08-21T07:14:32.000Z</time>
      </trkpt>
      <trkpt lat="47.57849" lon="7.35679">
        <ele>468</ele>
        <time>2016-08-21T07:14:39.000Z</time>
      </trkpt>
      <trkpt lat="47.57855" lon="7.35668">
        <ele>467</ele>
        <time>2016-08-21T07:14:46.000Z</time>
      </trkpt>
      <trkpt lat="47.57861" lon="7.35658">
        <ele>466</ele>
        <time>2016-08-21T07:14:53.000Z</time>
      </trkpt>
      <trkpt lat="47.57867" lon="7.35647">
        <ele>464</ele>
        <time>2016-08-21T07:15:00.000Z</time>
      </trkpt>
      <trkpt lat="47.57874" lon="7.35637">
        <ele>461</ele>
        <time>2016-08-21T07:15:07.000Z</time>
      </trkpt>
      <trkpt lat="47.5788" lon="7.35625">
        <ele>460</ele>
        <time>2016-08-21T07:15:14.000Z</time>
      </trkpt>
      <trkpt lat="47.57886" lon="7.35614">
        <ele>460</ele>
        <time>2016-08-21T07:15:21.000Z</time>
      </trkpt>
      <trkpt lat="47.57891" lon="7.35602">
        <ele>462</ele>
        <time>2016-08-21T07:15:28.000Z</time>
      </trkpt>
      <trkpt lat="47.57897" lon="7.35591">
        <ele>460</ele>
        <time>2016-08-21T07:15:35.000Z</time>
      </trkpt>
      <trkpt lat="47.57904" lon="7.35582">
        <ele>459</ele>
        <time>2016-08-21T07:15:42.000Z</time>
      </trkpt>
      <trkpt lat="47.57912" lon="7.35573">
        <ele>461</ele>
        <time>2016-08-21T07:15:49.000Z</time>
      </trkpt>
      <trkpt lat="47.57919" lon="7.35563">
        <ele>462</ele>
        <time>2016-08-21T07:15:56.000Z</time>
      </trkpt>
      <trkpt lat="47.57917" lon="7.3555">
        <ele>462</ele>
        <time>2016-08-21T07:16:16.000Z</time>
      </trkpt>
      <trkpt lat="47.57924" lon="7.3554">
        <ele>462</ele>
        <time>2016-08-21T07:16:22.000Z</time>
      </trkpt>
      <trkpt lat="47.57931" lon="7.3553">
        <ele>463</ele>
        <time>2016-08-21T07:16:28.000Z</time>
      </trkpt>
      <trkpt lat="47.57937" lon="7.35519">
        <ele>462</ele>
        <time>2016-08-21T07:16:37.000Z</time>
      </trkpt>
      <trkpt lat="47.57943" lon="7.35508">
        <ele>464</ele>
        <time>2016-08-21T07:16:43.000Z</time>
      </trkpt>
      <trkpt lat="47.57949" lon="7.35497">
        <ele>464</ele>
        <time>2016-08-21T07:16:49.000Z</time>
      </trkpt>
      <trkpt lat="47.57956" lon="7.35485">
        <ele>465</ele>
        <time>2016-08-21T07:16:55.000Z</time>
      </trkpt>
      <trkpt lat="47.57961" lon="7.35474">
        <ele>467</ele>
        <time>2016-08-21T07:17:01.000Z</time>
      </trkpt>
      <trkpt lat="47.57968" lon="7.35465">
        <ele>466</ele>
        <time>2016-08-21T07:17:08.000Z</time>
      </trkpt>
      <trkpt lat="47.57974" lon="7.35454">
        <ele>461</ele>
        <time>2016-08-21T07:17:15.000Z</time>
      </trkpt>
      <trkpt lat="47.5798" lon="7.35444">
        <ele>464</ele>
        <time>2016-08-21T07:17:21.000Z</time>
      </trkpt>
      <trkpt lat="47.57983" lon="7.35431">
        <ele>468</ele>
        <time>2016-08-21T07:17:26.000Z</time>
      </trkpt>
      <trkpt lat="47.57987" lon="7.35418">
        <ele>469</ele>
        <time>2016-08-21T07:17:32.000Z</time>
      </trkpt>
      <trkpt lat="47.57994" lon="7.35408">
        <ele>467</ele>
        <time>2016-08-21T07:17:39.000Z</time>
      </trkpt>
      <trkpt lat="47.58003" lon="7.35401">
        <ele>469</ele>
        <time>2016-08-21T07:17:46.000Z</time>
      </trkpt>
      <trkpt lat="47.58008" lon="7.35389">
        <ele>473</ele>
        <time>2016-08-21T07:17:54.000Z</time>
      </trkpt>
      <trkpt lat="47.58015" lon="7.3538">
        <ele>469</ele>
        <time>2016-08-21T07:18:02.000Z</time>
      </trkpt>
      <trkpt lat="47.58022" lon="7.35369">
        <ele>471</ele>
        <time>2016-08-21T07:18:10.000Z</time>
      </trkpt>
      <trkpt lat="47.5803" lon="7.35359">
        <ele>466</ele>
        <time>2016-08-21T07:18:17.000Z</time>
      </trkpt>
      <trkpt lat="47.58036" lon="7.35348">
        <ele>467</ele>
        <time>2016-08-21T07:18:24.000Z</time>
      </trkpt>
      <trkpt lat="47.58043" lon="7.35339">
        <ele>464</ele>
        <time>2016-08-21T07:18:31.000Z</time>
      </trkpt>
      <trkpt lat="47.58049" lon="7.35329">
        <ele>464</ele>
        <time>2016-08-21T07:18:38.000Z</time>
      </trkpt>
      <trkpt lat="47.58055" lon="7.35318">
        <ele>464</ele>
        <time>2016-08-21T07:18:46.000Z</time>
      </trkpt>
      <trkpt lat="47.58062" lon="7.3531">
        <ele>459</ele>
        <time>2016-08-21T07:18:56.000Z</time>
      </trkpt>
      <trkpt lat="47.5807" lon="7.35303">
        <ele>462</ele>
        <time>2016-08-21T07:19:05.000Z</time>
      </trkpt>
      <trkpt lat="47.5808" lon="7.35296">
        <ele>461</ele>
        <time>2016-08-21T07:19:10.000Z</time>
      </trkpt>
      <trkpt lat="47.58088" lon="7.35288">
        <ele>464</ele>
        <time>2016-08-21T07:19:15.000Z</time>
      </trkpt>
      <trkpt lat="47.58097" lon="7.35285">
        <ele>463</ele>
        <time>2016-08-21T07:19:22.000Z</time>
      </trkpt>
      <trkpt lat="47.58106" lon="7.35281">
        <ele>458</ele>
        <time>2016-08-21T07:19:29.000Z</time>
      </trkpt>
      <trkpt lat="47.58116" lon="7.35279">
        <ele>458</ele>
        <time>2016-08-21T07:19:34.000Z</time>
      </trkpt>
      <trkpt lat="47.58127" lon="7.35279">
        <ele>461</ele>
        <time>2016-08-21T07:19:40.000Z</time>
      </trkpt>
      <trkpt lat="47.58136" lon="7.35278">
        <ele>462</ele>
        <time>2016-08-21T07:19:45.000Z</time>
      </trkpt>
      <trkpt lat="47.58145" lon="7.35277">
        <ele>464</ele>
        <time>2016-08-21T07:19:51.000Z</time>
      </trkpt>
      <trkpt lat="47.58156" lon="7.35276">
        <ele>463</ele>
        <time>2016-08-21T07:19:59.000Z</time>
      </trkpt>
      <trkpt lat="47.58165" lon="7.3527">
        <ele>457</ele>
        <time>2016-08-21T07:20:12.000Z</time>
      </trkpt>
      <trkpt lat="47.58175" lon="7.35264">
        <ele>459</ele>
        <time>2016-08-21T07:20:17.000Z</time>
      </trkpt>
      <trkpt lat="47.58184" lon="7.35265">
        <ele>459</ele>
        <time>2016-08-21T07:20:22.000Z</time>
      </trkpt>
      <trkpt lat="47.58193" lon="7.35261">
        <ele>454</ele>
        <time>2016-08-21T07:20:34.000Z</time>
      </trkpt>
      <trkpt lat="47.58202" lon="7.35255">
        <ele>457</ele>
        <time>2016-08-21T07:20:41.000Z</time>
      </trkpt>
      <trkpt lat="47.58211" lon="7.3525">
        <ele>453</ele>
        <time>2016-08-21T07:20:46.000Z</time>
      </trkpt>
      <trkpt lat="47.5822" lon="7.35244">
        <ele>450</ele>
        <time>2016-08-21T07:20:53.000Z</time>
      </trkpt>
      <trkpt lat="47.5823" lon="7.35238">
        <ele>449</ele>
        <time>2016-08-21T07:21:01.000Z</time>
      </trkpt>
      <trkpt lat="47.58239" lon="7.35235">
        <ele>449</ele>
        <time>2016-08-21T07:21:07.000Z</time>
      </trkpt>
      <trkpt lat="47.58249" lon="7.35229">
        <ele>451</ele>
        <time>2016-08-21T07:21:14.000Z</time>
      </trkpt>
      <trkpt lat="47.58258" lon="7.35226">
        <ele>455</ele>
        <time>2016-08-21T07:21:21.000Z</time>
      </trkpt>
      <trkpt lat="47.5827" lon="7.35224">
        <ele>454</ele>
        <time>2016-08-21T07:21:28.000Z</time>
      </trkpt>
      <trkpt lat="47.58279" lon="7.35217">
        <ele>454</ele>
        <time>2016-08-21T07:21:34.000Z</time>
      </trkpt>
      <trkpt lat="47.58291" lon="7.35213">
        <ele>454</ele>
        <time>2016-08-21T07:21:41.000Z</time>
      </trkpt>
      <trkpt lat="47.583" lon="7.35207">
        <ele>456</ele>
        <time>2016-08-21T07:21:48.000Z</time>
      </trkpt>
      <trkpt lat="47.58308" lon="7.352">
        <ele>456</ele>
        <time>2016-08-21T07:21:55.000Z</time>
      </trkpt>
      <trkpt lat="47.58317" lon="7.35195">
        <ele>454</ele>
        <time>2016-08-21T07:22:08.000Z</time>
      </trkpt>
      <trkpt lat="47.58326" lon="7.35194">
        <ele>451</ele>
        <time>2016-08-21T07:22:17.000Z</time>
      </trkpt>
      <trkpt lat="47.58337" lon="7.35194">
        <ele>451</ele>
        <time>2016-08-21T07:22:23.000Z</time>
      </trkpt>
      <trkpt lat="47.58348" lon="7.35188">
        <ele>453</ele>
        <time>2016-08-21T07:22:30.000Z</time>
      </trkpt>
      <trkpt lat="47.58358" lon="7.35185">
        <ele>459</ele>
        <time>2016-08-21T07:22:35.000Z</time>
      </trkpt>
      <trkpt lat="47.58367" lon="7.3518">
        <ele>462</ele>
        <time>2016-08-21T07:22:40.000Z</time>
      </trkpt>
      <trkpt lat="47.58376" lon="7.35179">
        <ele>458</ele>
        <time>2016-08-21T07:22:47.000Z</time>
      </trkpt>
      <trkpt lat="47.58386" lon="7.3518">
        <ele>453</ele>
        <time>2016-08-21T07:22:53.000Z</time>
      </trkpt>
      <trkpt lat="47.58396" lon="7.35182">
        <ele>453</ele>
        <time>2016-08-21T07:23:00.000Z</time>
      </trkpt>
      <trkpt lat="47.58405" lon="7.35183">
        <ele>450</ele>
        <time>2016-08-21T07:23:08.000Z</time>
      </trkpt>
      <trkpt lat="47.58415" lon="7.35184">
        <ele>445</ele>
        <time>2016-08-21T07:23:16.000Z</time>
      </trkpt>
      <trkpt lat="47.58424" lon="7.35182">
        <ele>445</ele>
        <time>2016-08-21T07:23:23.000Z</time>
      </trkpt>
      <trkpt lat="47.58434" lon="7.3518">
        <ele>445</ele>
        <time>2016-08-21T07:23:30.000Z</time>
      </trkpt>
      <trkpt lat="47.58445" lon="7.35179">
        <ele>443</ele>
        <time>2016-08-21T07:23:38.000Z</time>
      </trkpt>
      <trkpt lat="47.58455" lon="7.35181">
        <ele>443</ele>
        <time>2016-08-21T07:23:44.000Z</time>
      </trkpt>
      <trkpt lat="47.58465" lon="7.35181">
        <ele>445</ele>
        <time>2016-08-21T07:23:49.000Z</time>
      </trkpt>
      <trkpt lat="47.58476" lon="7.35181">
        <ele>440</ele>
        <time>2016-08-21T07:23:55.000Z</time>
      </trkpt>
      <trkpt lat="47.58485" lon="7.35184">
        <ele>440</ele>
        <time>2016-08-21T07:24:03.000Z</time>
      </trkpt>
      <trkpt lat="47.58497" lon="7.35187">
        <ele>437</ele>
        <time>2016-08-21T07:24:17.000Z</time>
      </trkpt>
      <trkpt lat="47.58506" lon="7.35188">
        <ele>435</ele>
        <time>2016-08-21T07:24:24.000Z</time>
      </trkpt>
      <trkpt lat="47.58515" lon="7.35188">
        <ele>435</ele>
        <time>2016-08-21T07:24:31.000Z</time>
      </trkpt>
      <trkpt lat="47.58525" lon="7.35185">
        <ele>437</ele>
        <time>2016-08-21T07:24:38.000Z</time>
      </trkpt>
      <trkpt lat="47.58534" lon="7.3518">
        <ele>439</ele>
        <time>2016-08-21T07:24:46.000Z</time>
      </trkpt>
      <trkpt lat="47.58544" lon="7.3518">
        <ele>440</ele>
        <time>2016-08-21T07:24:56.000Z</time>
      </trkpt>
      <trkpt lat="47.58554" lon="7.35175">
        <ele>440</ele>
        <time>2016-08-21T07:25:03.000Z</time>
      </trkpt>
      <trkpt lat="47.58564" lon="7.35177">
        <ele>429</ele>
        <time>2016-08-21T07:25:10.000Z</time>
      </trkpt>
      <trkpt lat="47.58572" lon="7.35181">
        <ele>426</ele>
        <time>2016-08-21T07:25:21.000Z</time>
      </trkpt>
      <trkpt lat="47.58585" lon="7.3518">
        <ele>431</ele>
        <time>2016-08-21T07:25:29.000Z</time>
      </trkpt>
      <trkpt lat="47.58594" lon="7.35179">
        <ele>430</ele>
        <time>2016-08-21T07:25:34.000Z</time>
      </trkpt>
      <trkpt lat="47.58605" lon="7.3518">
        <ele>430</ele>
        <time>2016-08-21T07:25:41.000Z</time>
      </trkpt>
      <trkpt lat="47.58614" lon="7.35179">
        <ele>430</ele>
        <time>2016-08-21T07:25:47.000Z</time>
      </trkpt>
      <trkpt lat="47.58624" lon="7.35179">
        <ele>431</ele>
        <time>2016-08-21T07:25:54.000Z</time>
      </trkpt>
      <trkpt lat="47.58634" lon="7.35181">
        <ele>431</ele>
        <time>2016-08-21T07:26:00.000Z</time>
      </trkpt>
      <trkpt lat="47.58644" lon="7.35179">
        <ele>430</ele>
        <time>2016-08-21T07:26:07.000Z</time>
      </trkpt>
      <trkpt lat="47.58653" lon="7.35177">
        <ele>430</ele>
        <time>2016-08-21T07:26:13.000Z</time>
      </trkpt>
      <trkpt lat="47.58662" lon="7.35173">
        <ele>423</ele>
        <time>2016-08-21T07:26:28.000Z</time>
      </trkpt>
      <trkpt lat="47.58674" lon="7.35171">
        <ele>421</ele>
        <time>2016-08-21T07:26:34.000Z</time>
      </trkpt>
      <trkpt lat="47.58683" lon="7.35165">
        <ele>424</ele>
        <time>2016-08-21T07:26:41.000Z</time>
      </trkpt>
      <trkpt lat="47.58693" lon="7.35162">
        <ele>424</ele>
        <time>2016-08-21T07:26:47.000Z</time>
      </trkpt>
      <trkpt lat="47.58703" lon="7.35159">
        <ele>417</ele>
        <time>2016-08-21T07:26:53.000Z</time>
      </trkpt>
      <trkpt lat="47.58712" lon="7.35155">
        <ele>415</ele>
        <time>2016-08-21T07:27:03.000Z</time>
      </trkpt>
      <trkpt lat="47.58722" lon="7.35151">
        <ele>415</ele>
        <time>2016-08-21T07:27:10.000Z</time>
      </trkpt>
      <trkpt lat="47.5873" lon="7.35145">
        <ele>416</ele>
        <time>2016-08-21T07:27:20.000Z</time>
      </trkpt>
      <trkpt lat="47.58738" lon="7.35136">
        <ele>414</ele>
        <time>2016-08-21T07:27:28.000Z</time>
      </trkpt>
      <trkpt lat="47.58747" lon="7.35131">
        <ele>415</ele>
        <time>2016-08-21T07:27:36.000Z</time>
      </trkpt>
      <trkpt lat="47.58756" lon="7.35127">
        <ele>412</ele>
        <time>2016-08-21T07:27:43.000Z</time>
      </trkpt>
      <trkpt lat="47.58765" lon="7.35123">
        <ele>413</ele>
        <time>2016-08-21T07:27:49.000Z</time>
      </trkpt>
      <trkpt lat="47.58774" lon="7.35123">
        <ele>438</ele>
        <time>2016-08-21T07:27:54.000Z</time>
      </trkpt>
      <trkpt lat="47.58783" lon="7.35126">
        <ele>421</ele>
        <time>2016-08-21T07:28:01.000Z</time>
      </trkpt>
      <trkpt lat="47.58792" lon="7.3513">
        <ele>417</ele>
        <time>2016-08-21T07:28:08.000Z</time>
      </trkpt>
      <trkpt lat="47.58801" lon="7.35136">
        <ele>414</ele>
        <time>2016-08-21T07:28:16.000Z</time>
      </trkpt>
      <trkpt lat="47.5881" lon="7.35139">
        <ele>415</ele>
        <time>2016-08-21T07:28:23.000Z</time>
      </trkpt>
      <trkpt lat="47.58819" lon="7.35143">
        <ele>415</ele>
        <time>2016-08-21T07:28:30.000Z</time>
      </trkpt>
      <trkpt lat="47.58828" lon="7.35149">
        <ele>417</ele>
        <time>2016-08-21T07:28:36.000Z</time>
      </trkpt>
      <trkpt lat="47.58837" lon="7.35151">
        <ele>417</ele>
        <time>2016-08-21T07:28:42.000Z</time>
      </trkpt>
      <trkpt lat="47.58845" lon="7.35146">
        <ele>420</ele>
        <time>2016-08-21T07:28:48.000Z</time>
      </trkpt>
      <trkpt lat="47.58854" lon="7.35139">
        <ele>421</ele>
        <time>2016-08-21T07:28:55.000Z</time>
      </trkpt>
      <trkpt lat="47.58863" lon="7.35128">
        <ele>423</ele>
        <time>2016-08-21T07:29:03.000Z</time>
      </trkpt>
      <trkpt lat="47.5887" lon="7.35119">
        <ele>426</ele>
        <time>2016-08-21T07:29:09.000Z</time>
      </trkpt>
      <trkpt lat="47.58878" lon="7.3511">
        <ele>427</ele>
        <time>2016-08-21T07:29:16.000Z</time>
      </trkpt>
      <trkpt lat="47.58886" lon="7.35101">
        <ele>427</ele>
        <time>2016-08-21T07:29:23.000Z</time>
      </trkpt>
      <trkpt lat="47.58894" lon="7.35096">
        <ele>425</ele>
        <time>2016-08-21T07:29:30.000Z</time>
      </trkpt>
      <trkpt lat="47.58905" lon="7.35092">
        <ele>428</ele>
        <time>2016-08-21T07:29:39.000Z</time>
      </trkpt>
      <trkpt lat="47.58915" lon="7.35093">
        <ele>428</ele>
        <time>2016-08-21T07:29:46.000Z</time>
      </trkpt>
      <trkpt lat="47.58922" lon="7.35101">
        <ele>427</ele>
        <time>2016-08-21T07:29:54.000Z</time>
      </trkpt>
      <trkpt lat="47.58929" lon="7.35109">
        <ele>427</ele>
        <time>2016-08-21T07:30:01.000Z</time>
      </trkpt>
      <trkpt lat="47.58938" lon="7.35117">
        <ele>426</ele>
        <time>2016-08-21T07:30:08.000Z</time>
      </trkpt>
      <trkpt lat="47.58946" lon="7.35125">
        <ele>430</ele>
        <time>2016-08-21T07:30:15.000Z</time>
      </trkpt>
      <trkpt lat="47.58954" lon="7.35132">
        <ele>433</ele>
        <time>2016-08-21T07:30:22.000Z</time>
      </trkpt>
      <trkpt lat="47.58962" lon="7.35139">
        <ele>437</ele>
        <time>2016-08-21T07:30:29.000Z</time>
      </trkpt>
      <trkpt lat="47.58972" lon="7.35143">
        <ele>439</ele>
        <time>2016-08-21T07:30:37.000Z</time>
      </trkpt>
      <trkpt lat="47.5898" lon="7.3515">
        <ele>437</ele>
        <time>2016-08-21T07:30:46.000Z</time>
      </trkpt>
      <trkpt lat="47.58989" lon="7.35157">
        <ele>434</ele>
        <time>2016-08-21T07:30:53.000Z</time>
      </trkpt>
      <trkpt lat="47.58999" lon="7.35165">
        <ele>431</ele>
        <time>2016-08-21T07:31:02.000Z</time>
      </trkpt>
      <trkpt lat="47.59008" lon="7.35172">
        <ele>426</ele>
        <time>2016-08-21T07:31:09.000Z</time>
      </trkpt>
      <trkpt lat="47.59016" lon="7.35178">
        <ele>423</ele>
        <time>2016-08-21T07:31:16.000Z</time>
      </trkpt>
      <trkpt lat="47.59023" lon="7.35188">
        <ele>419</ele>
        <time>2016-08-21T07:31:26.000Z</time>
      </trkpt>
      <trkpt lat="47.59032" lon="7.35194">
        <ele>415</ele>
        <time>2016-08-21T07:31:51.000Z</time>
      </trkpt>
      <trkpt lat="47.59041" lon="7.35197">
        <ele>413</ele>
        <time>2016-08-21T07:31:57.000Z</time>
      </trkpt>
      <trkpt lat="47.5905" lon="7.352">
        <ele>411</ele>
        <time>2016-08-21T07:32:04.000Z</time>
      </trkpt>
      <trkpt lat="47.59059" lon="7.35207">
        <ele>414</ele>
        <time>2016-08-21T07:32:11.000Z</time>
      </trkpt>
      <trkpt lat="47.59055" lon="7.3522">
        <ele>408</ele>
        <time>2016-08-21T07:32:22.000Z</time>
      </trkpt>
      <trkpt lat="47.59046" lon="7.35223">
        <ele>407</ele>
        <time>2016-08-21T07:32:39.000Z</time>
      </trkpt>
      <trkpt lat="47.59036" lon="7.35227">
        <ele>401</ele>
        <time>2016-08-21T07:32:51.000Z</time>
      </trkpt>
      <trkpt lat="47.59026" lon="7.35235">
        <ele>405</ele>
        <time>2016-08-21T07:32:56.000Z</time>
      </trkpt>
      <trkpt lat="47.59021" lon="7.35247">
        <ele>414</ele>
        <time>2016-08-21T07:33:04.000Z</time>
      </trkpt>
      <trkpt lat="47.59024" lon="7.3526">
        <ele>414</ele>
        <time>2016-08-21T07:33:18.000Z</time>
      </trkpt>
      <trkpt lat="47.59026" lon="7.35274">
        <ele>418</ele>
        <time>2016-08-21T07:33:27.000Z</time>
      </trkpt>
      <trkpt lat="47.59026" lon="7.35288">
        <ele>414</ele>
        <time>2016-08-21T07:33:37.000Z</time>
      </trkpt>
      <trkpt lat="47.59029" lon="7.35301">
        <ele>415</ele>
        <time>2016-08-21T07:33:48.000Z</time>
      </trkpt>
      <trkpt lat="47.59023" lon="7.35312">
        <ele>414</ele>
        <time>2016-08-21T07:34:18.000Z</time>
      </trkpt>
      <trkpt lat="47.59016" lon="7.35323">
        <ele>418</ele>
        <time>2016-08-21T07:34:24.000Z</time>
      </trkpt>
      <trkpt lat="47.59013" lon="7.35336">
        <ele>420</ele>
        <time>2016-08-21T07:34:32.000Z</time>
      </trkpt>
      <trkpt lat="47.59008" lon="7.35352">
        <ele>422</ele>
        <time>2016-08-21T07:35:10.000Z</time>
      </trkpt>
      <trkpt lat="47.59005" lon="7.35365">
        <ele>421</ele>
        <time>2016-08-21T07:35:17.000Z</time>
      </trkpt>
      <trkpt lat="47.59001" lon="7.35379">
        <ele>420</ele>
        <time>2016-08-21T07:35:25.000Z</time>
      </trkpt>
      <trkpt lat="47.58998" lon="7.35393">
        <ele>426</ele>
        <time>2016-08-21T07:35:32.000Z</time>
      </trkpt>
      <trkpt lat="47.58995" lon="7.35406">
        <ele>426</ele>
        <time>2016-08-21T07:35:40.000Z</time>
      </trkpt>
      <trkpt lat="47.58989" lon="7.35416">
        <ele>428</ele>
        <time>2016-08-21T07:35:51.000Z</time>
      </trkpt>
      <trkpt lat="47.58982" lon="7.35425">
        <ele>433</ele>
        <time>2016-08-21T07:36:00.000Z</time>
      </trkpt>
      <trkpt lat="47.58974" lon="7.35435">
        <ele>433</ele>
        <time>2016-08-21T07:36:07.000Z</time>
      </trkpt>
      <trkpt lat="47.58964" lon="7.35445">
        <ele>433</ele>
        <time>2016-08-21T07:36:13.000Z</time>
      </trkpt>
      <trkpt lat="47.58958" lon="7.35455">
        <ele>432</ele>
        <time>2016-08-21T07:36:19.000Z</time>
      </trkpt>
      <trkpt lat="47.58954" lon="7.35468">
        <ele>435</ele>
        <time>2016-08-21T07:36:32.000Z</time>
      </trkpt>
      <trkpt lat="47.58954" lon="7.35482">
        <ele>437</ele>
        <time>2016-08-21T07:36:43.000Z</time>
      </trkpt>
      <trkpt lat="47.58952" lon="7.35496">
        <ele>436</ele>
        <time>2016-08-21T07:36:56.000Z</time>
      </trkpt>
      <trkpt lat="47.58949" lon="7.35512">
        <ele>432</ele>
        <time>2016-08-21T07:37:20.000Z</time>
      </trkpt>
      <trkpt lat="47.58948" lon="7.35527">
        <ele>434</ele>
        <time>2016-08-21T07:37:26.000Z</time>
      </trkpt>
      <trkpt lat="47.58947" lon="7.35543">
        <ele>435</ele>
        <time>2016-08-21T07:37:32.000Z</time>
      </trkpt>
      <trkpt lat="47.58949" lon="7.35556">
        <ele>437</ele>
        <time>2016-08-21T07:37:37.000Z</time>
      </trkpt>
      <trkpt lat="47.58954" lon="7.35568">
        <ele>440</ele>
        <time>2016-08-21T07:37:43.000Z</time>
      </trkpt>
      <trkpt lat="47.58955" lon="7.35583">
        <ele>445</ele>
        <time>2016-08-21T07:37:51.000Z</time>
      </trkpt>
      <trkpt lat="47.58953" lon="7.35598">
        <ele>449</ele>
        <time>2016-08-21T07:38:00.000Z</time>
      </trkpt>
      <trkpt lat="47.58952" lon="7.35612">
        <ele>449</ele>
        <time>2016-08-21T07:38:07.000Z</time>
      </trkpt>
      <trkpt lat="47.58956" lon="7.35626">
        <ele>442</ele>
        <time>2016-08-21T07:38:14.000Z</time>
      </trkpt>
      <trkpt lat="47.58959" lon="7.3564">
        <ele>453</ele>
        <time>2016-08-21T07:38:22.000Z</time>
      </trkpt>
      <trkpt lat="47.58965" lon="7.3565">
        <ele>458</ele>
        <time>2016-08-21T07:38:30.000Z</time>
      </trkpt>
      <trkpt lat="47.58964" lon="7.35664">
        <ele>459</ele>
        <time>2016-08-21T07:38:38.000Z</time>
      </trkpt>
      <trkpt lat="47.5897" lon="7.35676">
        <ele>457</ele>
        <time>2016-08-21T07:38:45.000Z</time>
      </trkpt>
      <trkpt lat="47.58979" lon="7.35674">
        <ele>459</ele>
        <time>2016-08-21T07:38:54.000Z</time>
      </trkpt>
      <trkpt lat="47.58988" lon="7.35678">
        <ele>456</ele>
        <time>2016-08-21T07:39:00.000Z</time>
      </trkpt>
      <trkpt lat="47.58997" lon="7.35687">
        <ele>453</ele>
        <time>2016-08-21T07:39:08.000Z</time>
      </trkpt>
      <trkpt lat="47.59004" lon="7.35695">
        <ele>451</ele>
        <time>2016-08-21T07:39:15.000Z</time>
      </trkpt>
      <trkpt lat="47.59013" lon="7.357">
        <ele>453</ele>
        <time>2016-08-21T07:39:21.000Z</time>
      </trkpt>
      <trkpt lat="47.59022" lon="7.35707">
        <ele>454</ele>
        <time>2016-08-21T07:39:31.000Z</time>
      </trkpt>
      <trkpt lat="47.5903" lon="7.35714">
        <ele>455</ele>
        <time>2016-08-21T07:39:38.000Z</time>
      </trkpt>
      <trkpt lat="47.59038" lon="7.35721">
        <ele>456</ele>
        <time>2016-08-21T07:39:44.000Z</time>
      </trkpt>
      <trkpt lat="47.59045" lon="7.35729">
        <ele>456</ele>
        <time>2016-08-21T07:39:50.000Z</time>
      </trkpt>
      <trkpt lat="47.59053" lon="7.35738">
        <ele>456</ele>
        <time>2016-08-21T07:39:56.000Z</time>
      </trkpt>
      <trkpt lat="47.59057" lon="7.3575">
        <ele>455</ele>
        <time>2016-08-21T07:40:04.000Z</time>
      </trkpt>
      <trkpt lat="47.59063" lon="7.3576">
        <ele>456</ele>
        <time>2016-08-21T07:40:11.000Z</time>
      </trkpt>
      <trkpt lat="47.59069" lon="7.3577">
        <ele>458</ele>
        <time>2016-08-21T07:40:17.000Z</time>
      </trkpt>
      <trkpt lat="47.59076" lon="7.35779">
        <ele>460</ele>
        <time>2016-08-21T07:40:23.000Z</time>
      </trkpt>
      <trkpt lat="47.59082" lon="7.3579">
        <ele>462</ele>
        <time>2016-08-21T07:40:30.000Z</time>
      </trkpt>
      <trkpt lat="47.59084" lon="7.35804">
        <ele>457</ele>
        <time>2016-08-21T07:40:40.000Z</time>
      </trkpt>
      <trkpt lat="47.59089" lon="7.35817">
        <ele>456</ele>
        <time>2016-08-21T07:40:48.000Z</time>
      </trkpt>
      <trkpt lat="47.59095" lon="7.35828">
        <ele>450</ele>
        <time>2016-08-21T07:41:00.000Z</time>
      </trkpt>
      <trkpt lat="47.59098" lon="7.35841">
        <ele>454</ele>
        <time>2016-08-21T07:42:02.000Z</time>
      </trkpt>
      <trkpt lat="47.59103" lon="7.35856">
        <ele>452</ele>
        <time>2016-08-21T07:43:02.000Z</time>
      </trkpt>
      <trkpt lat="47.59106" lon="7.35869">
        <ele>451</ele>
        <time>2016-08-21T07:43:12.000Z</time>
      </trkpt>
      <trkpt lat="47.59109" lon="7.35882">
        <ele>451</ele>
        <time>2016-08-21T07:43:20.000Z</time>
      </trkpt>
      <trkpt lat="47.59111" lon="7.35895">
        <ele>452</ele>
        <time>2016-08-21T07:43:27.000Z</time>
      </trkpt>
      <trkpt lat="47.59117" lon="7.35905">
        <ele>459</ele>
        <time>2016-08-21T07:43:33.000Z</time>
      </trkpt>
      <trkpt lat="47.59122" lon="7.35918">
        <ele>460</ele>
        <time>2016-08-21T07:43:40.000Z</time>
      </trkpt>
      <trkpt lat="47.59124" lon="7.35932">
        <ele>459</ele>
        <time>2016-08-21T07:43:46.000Z</time>
      </trkpt>
      <trkpt lat="47.59128" lon="7.35945">
        <ele>452</ele>
        <time>2016-08-21T07:43:54.000Z</time>
      </trkpt>
      <trkpt lat="47.59133" lon="7.35957">
        <ele>454</ele>
        <time>2016-08-21T07:44:02.000Z</time>
      </trkpt>
      <trkpt lat="47.59139" lon="7.35969">
        <ele>456</ele>
        <time>2016-08-21T07:44:08.000Z</time>
      </trkpt>
      <trkpt lat="47.59143" lon="7.35981">
        <ele>458</ele>
        <time>2016-08-21T07:44:15.000Z</time>
      </trkpt>
      <trkpt lat="47.59151" lon="7.35991">
        <ele>458</ele>
        <time>2016-08-21T07:44:22.000Z</time>
      </trkpt>
      <trkpt lat="47.59155" lon="7.36004">
        <ele>456</ele>
        <time>2016-08-21T07:44:31.000Z</time>
      </trkpt>
      <trkpt lat="47.59157" lon="7.36017">
        <ele>457</ele>
        <time>2016-08-21T07:44:39.000Z</time>
      </trkpt>
      <trkpt lat="47.59162" lon="7.36032">
        <ele>459</ele>
        <time>2016-08-21T07:44:47.000Z</time>
      </trkpt>
      <trkpt lat="47.59168" lon="7.36046">
        <ele>464</ele>
        <time>2016-08-21T07:44:54.000Z</time>
      </trkpt>
      <trkpt lat="47.59172" lon="7.36059">
        <ele>465</ele>
        <time>2016-08-21T07:45:00.000Z</time>
      </trkpt>
      <trkpt lat="47.59177" lon="7.36072">
        <ele>464</ele>
        <time>2016-08-21T07:45:07.000Z</time>
      </trkpt>
      <trkpt lat="47.59181" lon="7.36086">
        <ele>463</ele>
        <time>2016-08-21T07:45:14.000Z</time>
      </trkpt>
      <trkpt lat="47.59186" lon="7.36102">
        <ele>466</ele>
        <time>2016-08-21T07:45:22.000Z</time>
      </trkpt>
      <trkpt lat="47.5919" lon="7.36116">
        <ele>465</ele>
        <time>2016-08-21T07:45:27.000Z</time>
      </trkpt>
      <trkpt lat="47.59194" lon="7.36129">
        <ele>466</ele>
        <time>2016-08-21T07:45:32.000Z</time>
      </trkpt>
      <trkpt lat="47.59198" lon="7.36143">
        <ele>464</ele>
        <time>2016-08-21T07:45:38.000Z</time>
      </trkpt>
      <trkpt lat="47.59206" lon="7.36151">
        <ele>461</ele>
        <time>2016-08-21T07:45:44.000Z</time>
      </trkpt>
      <trkpt lat="47.59216" lon="7.36154">
        <ele>462</ele>
        <time>2016-08-21T07:45:51.000Z</time>
      </trkpt>
      <trkpt lat="47.59226" lon="7.36158">
        <ele>458</ele>
        <time>2016-08-21T07:46:00.000Z</time>
      </trkpt>
      <trkpt lat="47.59235" lon="7.3616">
        <ele>457</ele>
        <time>2016-08-21T07:46:07.000Z</time>
      </trkpt>
      <trkpt lat="47.59247" lon="7.36162">
        <ele>455</ele>
        <time>2016-08-21T07:46:14.000Z</time>
      </trkpt>
      <trkpt lat="47.59256" lon="7.36165">
        <ele>454</ele>
        <time>2016-08-21T07:46:20.000Z</time>
      </trkpt>
      <trkpt lat="47.59269" lon="7.36167">
        <ele>456</ele>
        <time>2016-08-21T07:46:28.000Z</time>
      </trkpt>
      <trkpt lat="47.59278" lon="7.3617">
        <ele>454</ele>
        <time>2016-08-21T07:46:34.000Z</time>
      </trkpt>
      <trkpt lat="47.59288" lon="7.36172">
        <ele>452</ele>
        <time>2016-08-21T07:46:41.000Z</time>
      </trkpt>
      <trkpt lat="47.59297" lon="7.36174">
        <ele>455</ele>
        <time>2016-08-21T07:46:47.000Z</time>
      </trkpt>
      <trkpt lat="47.59307" lon="7.36176">
        <ele>450</ele>
        <time>2016-08-21T07:46:55.000Z</time>
      </trkpt>
      <trkpt lat="47.59316" lon="7.36175">
        <ele>450</ele>
        <time>2016-08-21T07:47:01.000Z</time>
      </trkpt>
      <trkpt lat="47.59325" lon="7.36178">
        <ele>448</ele>
        <time>2016-08-21T07:47:08.000Z</time>
      </trkpt>
      <trkpt lat="47.59335" lon="7.36182">
        <ele>449</ele>
        <time>2016-08-21T07:47:15.000Z</time>
      </trkpt>
      <trkpt lat="47.59342" lon="7.3619">
        <ele>445</ele>
        <time>2016-08-21T07:47:21.000Z</time>
      </trkpt>
      <trkpt lat="47.59348" lon="7.36202">
        <ele>440</ele>
        <time>2016-08-21T07:47:27.000Z</time>
      </trkpt>
      <trkpt lat="47.59355" lon="7.36212">
        <ele>440</ele>
        <time>2016-08-21T07:47:33.000Z</time>
      </trkpt>
      <trkpt lat="47.59364" lon="7.36222">
        <ele>442</ele>
        <time>2016-08-21T07:47:39.000Z</time>
      </trkpt>
      <trkpt lat="47.59372" lon="7.36229">
        <ele>445</ele>
        <time>2016-08-21T07:47:43.000Z</time>
      </trkpt>
      <trkpt lat="47.59379" lon="7.36237">
        <ele>445</ele>
        <time>2016-08-21T07:47:47.000Z</time>
      </trkpt>
      <trkpt lat="47.59388" lon="7.36245">
        <ele>445</ele>
        <time>2016-08-21T07:47:52.000Z</time>
      </trkpt>
      <trkpt lat="47.59396" lon="7.36253">
        <ele>445</ele>
        <time>2016-08-21T07:47:57.000Z</time>
      </trkpt>
      <trkpt lat="47.59404" lon="7.36262">
        <ele>446</ele>
        <time>2016-08-21T07:48:03.000Z</time>
      </trkpt>
      <trkpt lat="47.59412" lon="7.36271">
        <ele>449</ele>
        <time>2016-08-21T07:48:08.000Z</time>
      </trkpt>
      <trkpt lat="47.59421" lon="7.3628">
        <ele>449</ele>
        <time>2016-08-21T07:48:14.000Z</time>
      </trkpt>
      <trkpt lat="47.59427" lon="7.36291">
        <ele>448</ele>
        <time>2016-08-21T07:48:20.000Z</time>
      </trkpt>
      <trkpt lat="47.59435" lon="7.36301">
        <ele>448</ele>
        <time>2016-08-21T07:48:26.000Z</time>
      </trkpt>
      <trkpt lat="47.59443" lon="7.36314">
        <ele>450</ele>
        <time>2016-08-21T07:48:33.000Z</time>
      </trkpt>
      <trkpt lat="47.59448" lon="7.36328">
        <ele>449</ele>
        <time>2016-08-21T07:48:39.000Z</time>
      </trkpt>
      <trkpt lat="47.59444" lon="7.36342">
        <ele>447</ele>
        <time>2016-08-21T07:48:45.000Z</time>
      </trkpt>
      <trkpt lat="47.5944" lon="7.36355">
        <ele>444</ele>
        <time>2016-08-21T07:48:53.000Z</time>
      </trkpt>
      <trkpt lat="47.59436" lon="7.36368">
        <ele>441</ele>
        <time>2016-08-21T07:49:00.000Z</time>
      </trkpt>
      <trkpt lat="47.59432" lon="7.36381">
        <ele>438</ele>
        <time>2016-08-21T07:49:10.000Z</time>
      </trkpt>
      <trkpt lat="47.59427" lon="7.36395">
        <ele>436</ele>
        <time>2016-08-21T07:49:17.000Z</time>
      </trkpt>
      <trkpt lat="47.59427" lon="7.36411">
        <ele>440</ele>
        <time>2016-08-21T07:49:24.000Z</time>
      </trkpt>
      <trkpt lat="47.59428" lon="7.36424">
        <ele>440</ele>
        <time>2016-08-21T07:49:30.000Z</time>
      </trkpt>
      <trkpt lat="47.59431" lon="7.36437">
        <ele>440</ele>
        <time>2016-08-21T07:49:38.000Z</time>
      </trkpt>
      <trkpt lat="47.5944" lon="7.36446">
        <ele>442</ele>
        <time>2016-08-21T07:49:44.000Z</time>
      </trkpt>
      <trkpt lat="47.59448" lon="7.36454">
        <ele>445</ele>
        <time>2016-08-21T07:49:49.000Z</time>
      </trkpt>
      <trkpt lat="47.59455" lon="7.36464">
        <ele>432</ele>
        <time>2016-08-21T07:49:57.000Z</time>
      </trkpt>
      <trkpt lat="47.59464" lon="7.36472">
        <ele>433</ele>
        <time>2016-08-21T07:50:04.000Z</time>
      </trkpt>
      <trkpt lat="47.59472" lon="7.36482">
        <ele>433</ele>
        <time>2016-08-21T07:50:12.000Z</time>
      </trkpt>
      <trkpt lat="47.59482" lon="7.36485">
        <ele>432</ele>
        <time>2016-08-21T07:50:19.000Z</time>
      </trkpt>
      <trkpt lat="47.5949" lon="7.36493">
        <ele>434</ele>
        <time>2016-08-21T07:50:27.000Z</time>
      </trkpt>
      <trkpt lat="47.59499" lon="7.365">
        <ele>431</ele>
        <time>2016-08-21T07:50:35.000Z</time>
      </trkpt>
      <trkpt lat="47.59507" lon="7.36503">
        <ele>430</ele>
        <time>2016-08-21T07:50:41.000Z</time>
      </trkpt>
      <trkpt lat="47.59516" lon="7.36508">
        <ele>430</ele>
        <time>2016-08-21T07:50:47.000Z</time>
      </trkpt>
      <trkpt lat="47.59526" lon="7.3651">
        <ele>430</ele>
        <time>2016-08-21T07:50:54.000Z</time>
      </trkpt>
      <trkpt lat="47.59537" lon="7.36514">
        <ele>429</ele>
        <time>2016-08-21T07:51:02.000Z</time>
      </trkpt>
      <trkpt lat="47.59546" lon="7.36521">
        <ele>429</ele>
        <time>2016-08-21T07:51:09.000Z</time>
      </trkpt>
      <trkpt lat="47.59554" lon="7.36527">
        <ele>428</ele>
        <time>2016-08-21T07:51:17.000Z</time>
      </trkpt>
      <trkpt lat="47.59564" lon="7.36529">
        <ele>427</ele>
        <time>2016-08-21T07:51:23.000Z</time>
      </trkpt>
      <trkpt lat="47.59574" lon="7.36534">
        <ele>427</ele>
        <time>2016-08-21T07:51:30.000Z</time>
      </trkpt>
      <trkpt lat="47.59584" lon="7.36531">
        <ele>426</ele>
        <time>2016-08-21T07:51:39.000Z</time>
      </trkpt>
      <trkpt lat="47.59594" lon="7.36527">
        <ele>424</ele>
        <time>2016-08-21T07:51:47.000Z</time>
      </trkpt>
      <trkpt lat="47.59603" lon="7.36525">
        <ele>423</ele>
        <time>2016-08-21T07:51:53.000Z</time>
      </trkpt>
      <trkpt lat="47.59613" lon="7.36523">
        <ele>422</ele>
        <time>2016-08-21T07:52:00.000Z</time>
      </trkpt>
      <trkpt lat="47.59623" lon="7.36518">
        <ele>422</ele>
        <time>2016-08-21T07:52:07.000Z</time>
      </trkpt>
      <trkpt lat="47.59631" lon="7.36513">
        <ele>421</ele>
        <time>2016-08-21T07:52:13.000Z</time>
      </trkpt>
      <trkpt lat="47.5964" lon="7.36509">
        <ele>420</ele>
        <time>2016-08-21T07:52:19.000Z</time>
      </trkpt>
      <trkpt lat="47.59649" lon="7.36504">
        <ele>420</ele>
        <time>2016-08-21T07:52:25.000Z</time>
      </trkpt>
      <trkpt lat="47.59659" lon="7.36503">
        <ele>419</ele>
        <time>2016-08-21T07:52:32.000Z</time>
      </trkpt>
      <trkpt lat="47.59667" lon="7.36507">
        <ele>419</ele>
        <time>2016-08-21T07:52:38.000Z</time>
      </trkpt>
      <trkpt lat="47.59676" lon="7.36511">
        <ele>419</ele>
        <time>2016-08-21T07:52:44.000Z</time>
      </trkpt>
      <trkpt lat="47.59686" lon="7.36518">
        <ele>419</ele>
        <time>2016-08-21T07:52:51.000Z</time>
      </trkpt>
      <trkpt lat="47.59695" lon="7.36524">
        <ele>417</ele>
        <time>2016-08-21T07:52:58.000Z</time>
      </trkpt>
      <trkpt lat="47.59704" lon="7.36528">
        <ele>414</ele>
        <time>2016-08-21T07:53:04.000Z</time>
      </trkpt>
      <trkpt lat="47.59713" lon="7.36533">
        <ele>413</ele>
        <time>2016-08-21T07:53:10.000Z</time>
      </trkpt>
      <trkpt lat="47.59721" lon="7.36538">
        <ele>412</ele>
        <time>2016-08-21T07:53:17.000Z</time>
      </trkpt>
      <trkpt lat="47.59731" lon="7.3654">
        <ele>412</ele>
        <time>2016-08-21T07:53:24.000Z</time>
      </trkpt>
      <trkpt lat="47.5974" lon="7.36542">
        <ele>414</ele>
        <time>2016-08-21T07:53:30.000Z</time>
      </trkpt>
      <trkpt lat="47.59751" lon="7.36546">
        <ele>411</ele>
        <time>2016-08-21T07:53:37.000Z</time>
      </trkpt>
      <trkpt lat="47.5976" lon="7.36549">
        <ele>412</ele>
        <time>2016-08-21T07:53:43.000Z</time>
      </trkpt>
      <trkpt lat="47.5977" lon="7.36553">
        <ele>408</ele>
        <time>2016-08-21T07:53:50.000Z</time>
      </trkpt>
      <trkpt lat="47.59779" lon="7.36556">
        <ele>407</ele>
        <time>2016-08-21T07:53:56.000Z</time>
      </trkpt>
      <trkpt lat="47.5979" lon="7.36562">
        <ele>408</ele>
        <time>2016-08-21T07:54:05.000Z</time>
      </trkpt>
      <trkpt lat="47.59798" lon="7.36567">
        <ele>408</ele>
        <time>2016-08-21T07:54:12.000Z</time>
      </trkpt>
      <trkpt lat="47.59808" lon="7.36569">
        <ele>402</ele>
        <time>2016-08-21T07:54:18.000Z</time>
      </trkpt>
      <trkpt lat="47.59818" lon="7.36571">
        <ele>401</ele>
        <time>2016-08-21T07:54:24.000Z</time>
      </trkpt>
      <trkpt lat="47.59828" lon="7.36574">
        <ele>404</ele>
        <time>2016-08-21T07:54:30.000Z</time>
      </trkpt>
      <trkpt lat="47.59836" lon="7.36581">
        <ele>406</ele>
        <time>2016-08-21T07:54:36.000Z</time>
      </trkpt>
      <trkpt lat="47.59835" lon="7.36597">
        <ele>404</ele>
        <time>2016-08-21T07:54:42.000Z</time>
      </trkpt>
      <trkpt lat="47.5983" lon="7.36608">
        <ele>402</ele>
        <time>2016-08-21T07:54:47.000Z</time>
      </trkpt>
      <trkpt lat="47.59824" lon="7.3662">
        <ele>402</ele>
        <time>2016-08-21T07:54:53.000Z</time>
      </trkpt>
      <trkpt lat="47.59819" lon="7.36632">
        <ele>406</ele>
        <time>2016-08-21T07:54:58.000Z</time>
      </trkpt>
      <trkpt lat="47.59813" lon="7.36646">
        <ele>403</ele>
        <time>2016-08-21T07:55:05.000Z</time>
      </trkpt>
      <trkpt lat="47.59806" lon="7.36656">
        <ele>405</ele>
        <time>2016-08-21T07:55:13.000Z</time>
      </trkpt>
      <trkpt lat="47.59802" lon="7.36668">
        <ele>405</ele>
        <time>2016-08-21T07:55:20.000Z</time>
      </trkpt>
      <trkpt lat="47.59796" lon="7.36681">
        <ele>407</ele>
        <time>2016-08-21T07:55:27.000Z</time>
      </trkpt>
      <trkpt lat="47.59792" lon="7.36696">
        <ele>402</ele>
        <time>2016-08-21T07:55:35.000Z</time>
      </trkpt>
      <trkpt lat="47.59784" lon="7.36704">
        <ele>401</ele>
        <time>2016-08-21T07:55:42.000Z</time>
      </trkpt>
      <trkpt lat="47.59779" lon="7.36715">
        <ele>404</ele>
        <time>2016-08-21T07:55:49.000Z</time>
      </trkpt>
      <trkpt lat="47.59773" lon="7.36727">
        <ele>405</ele>
        <time>2016-08-21T07:55:57.000Z</time>
      </trkpt>
      <trkpt lat="47.59766" lon="7.36739">
        <ele>406</ele>
        <time>2016-08-21T07:56:05.000Z</time>
      </trkpt>
      <trkpt lat="47.5976" lon="7.36751">
        <ele>405</ele>
        <time>2016-08-21T07:56:11.000Z</time>
      </trkpt>
      <trkpt lat="47.59753" lon="7.36764">
        <ele>406</ele>
        <time>2016-08-21T07:56:18.000Z</time>
      </trkpt>
      <trkpt lat="47.59746" lon="7.36774">
        <ele>405</ele>
        <time>2016-08-21T07:56:25.000Z</time>
      </trkpt>
      <trkpt lat="47.59738" lon="7.36781">
        <ele>406</ele>
        <time>2016-08-21T07:56:32.000Z</time>
      </trkpt>
      <trkpt lat="47.59729" lon="7.36788">
        <ele>406</ele>
        <time>2016-08-21T07:56:40.000Z</time>
      </trkpt>
      <trkpt lat="47.5972" lon="7.36796">
        <ele>407</ele>
        <time>2016-08-21T07:56:47.000Z</time>
      </trkpt>
      <trkpt lat="47.59711" lon="7.368">
        <ele>404</ele>
        <time>2016-08-21T07:56:53.000Z</time>
      </trkpt>
      <trkpt lat="47.59703" lon="7.36806">
        <ele>407</ele>
        <time>2016-08-21T07:57:00.000Z</time>
      </trkpt>
      <trkpt lat="47.59694" lon="7.36813">
        <ele>409</ele>
        <time>2016-08-21T07:57:07.000Z</time>
      </trkpt>
      <trkpt lat="47.59684" lon="7.36817">
        <ele>408</ele>
        <time>2016-08-21T07:57:14.000Z</time>
      </trkpt>
      <trkpt lat="47.59675" lon="7.36822">
        <ele>405</ele>
        <time>2016-08-21T07:57:22.000Z</time>
      </trkpt>
      <trkpt lat="47.59664" lon="7.36829">
        <ele>409</ele>
        <time>2016-08-21T07:57:31.000Z</time>
      </trkpt>
      <trkpt lat="47.59655" lon="7.36832">
        <ele>407</ele>
        <time>2016-08-21T07:57:38.000Z</time>
      </trkpt>
      <trkpt lat="47.59646" lon="7.36837">
        <ele>410</ele>
        <time>2016-08-21T07:57:45.000Z</time>
      </trkpt>
      <trkpt lat="47.59637" lon="7.3684">
        <ele>411</ele>
        <time>2016-08-21T07:57:53.000Z</time>
      </trkpt>
      <trkpt lat="47.59626" lon="7.36844">
        <ele>409</ele>
        <time>2016-08-21T07:58:01.000Z</time>
      </trkpt>
      <trkpt lat="47.59618" lon="7.36852">
        <ele>412</ele>
        <time>2016-08-21T07:58:08.000Z</time>
      </trkpt>
      <trkpt lat="47.59611" lon="7.36865">
        <ele>413</ele>
        <time>2016-08-21T07:58:15.000Z</time>
      </trkpt>
      <trkpt lat="47.59604" lon="7.36874">
        <ele>412</ele>
        <time>2016-08-21T07:58:22.000Z</time>
      </trkpt>
      <trkpt lat="47.59597" lon="7.36883">
        <ele>413</ele>
        <time>2016-08-21T07:58:28.000Z</time>
      </trkpt>
      <trkpt lat="47.5959" lon="7.36892">
        <ele>410</ele>
        <time>2016-08-21T07:58:35.000Z</time>
      </trkpt>
      <trkpt lat="47.59582" lon="7.369">
        <ele>411</ele>
        <time>2016-08-21T07:58:42.000Z</time>
      </trkpt>
      <trkpt lat="47.59576" lon="7.36911">
        <ele>413</ele>
        <time>2016-08-21T07:58:49.000Z</time>
      </trkpt>
      <trkpt lat="47.5957" lon="7.36922">
        <ele>413</ele>
        <time>2016-08-21T07:58:57.000Z</time>
      </trkpt>
      <trkpt lat="47.59566" lon="7.36936">
        <ele>410</ele>
        <time>2016-08-21T07:59:05.000Z</time>
      </trkpt>
      <trkpt lat="47.59562" lon="7.36948">
        <ele>409</ele>
        <time>2016-08-21T07:59:12.000Z</time>
      </trkpt>
      <trkpt lat="47.59559" lon="7.36962">
        <ele>412</ele>
        <time>2016-08-21T07:59:19.000Z</time>
      </trkpt>
      <trkpt lat="47.59554" lon="7.36974">
        <ele>411</ele>
        <time>2016-08-21T07:59:25.000Z</time>
      </trkpt>
      <trkpt lat="47.59547" lon="7.36983">
        <ele>412</ele>
        <time>2016-08-21T07:59:33.000Z</time>
      </trkpt>
      <trkpt lat="47.59539" lon="7.36993">
        <ele>411</ele>
        <time>2016-08-21T07:59:39.000Z</time>
      </trkpt>
      <trkpt lat="47.59531" lon="7.37005">
        <ele>411</ele>
        <time>2016-08-21T07:59:47.000Z</time>
      </trkpt>
      <trkpt lat="47.59525" lon="7.37018">
        <ele>416</ele>
        <time>2016-08-21T07:59:54.000Z</time>
      </trkpt>
      <trkpt lat="47.5952" lon="7.37031">
        <ele>418</ele>
        <time>2016-08-21T08:00:02.000Z</time>
      </trkpt>
      <trkpt lat="47.59514" lon="7.37044">
        <ele>420</ele>
        <time>2016-08-21T08:00:09.000Z</time>
      </trkpt>
      <trkpt lat="47.59508" lon="7.37054">
        <ele>420</ele>
        <time>2016-08-21T08:00:15.000Z</time>
      </trkpt>
      <trkpt lat="47.59502" lon="7.37065">
        <ele>424</ele>
        <time>2016-08-21T08:00:21.000Z</time>
      </trkpt>
      <trkpt lat="47.59497" lon="7.37075">
        <ele>423</ele>
        <time>2016-08-21T08:00:28.000Z</time>
      </trkpt>
      <trkpt lat="47.59489" lon="7.37086">
        <ele>424</ele>
        <time>2016-08-21T08:00:37.000Z</time>
      </trkpt>
      <trkpt lat="47.59484" lon="7.37097">
        <ele>425</ele>
        <time>2016-08-21T08:00:43.000Z</time>
      </trkpt>
      <trkpt lat="47.59479" lon="7.37109">
        <ele>427</ele>
        <time>2016-08-21T08:00:49.000Z</time>
      </trkpt>
      <trkpt lat="47.59472" lon="7.37119">
        <ele>426</ele>
        <time>2016-08-21T08:00:55.000Z</time>
      </trkpt>
      <trkpt lat="47.59461" lon="7.37122">
        <ele>419</ele>
        <time>2016-08-21T08:01:02.000Z</time>
      </trkpt>
      <trkpt lat="47.59453" lon="7.37127">
        <ele>420</ele>
        <time>2016-08-21T08:01:08.000Z</time>
      </trkpt>
      <trkpt lat="47.59445" lon="7.37133">
        <ele>421</ele>
        <time>2016-08-21T08:01:15.000Z</time>
      </trkpt>
      <trkpt lat="47.59436" lon="7.37137">
        <ele>418</ele>
        <time>2016-08-21T08:01:21.000Z</time>
      </trkpt>
      <trkpt lat="47.59427" lon="7.37145">
        <ele>420</ele>
        <time>2016-08-21T08:01:28.000Z</time>
      </trkpt>
      <trkpt lat="47.59416" lon="7.37146">
        <ele>417</ele>
        <time>2016-08-21T08:01:36.000Z</time>
      </trkpt>
      <trkpt lat="47.59407" lon="7.3715">
        <ele>415</ele>
        <time>2016-08-21T08:01:57.000Z</time>
      </trkpt>
      <trkpt lat="47.59399" lon="7.37155">
        <ele>412</ele>
        <time>2016-08-21T08:02:08.000Z</time>
      </trkpt>
      <trkpt lat="47.59389" lon="7.3716">
        <ele>413</ele>
        <time>2016-08-21T08:02:29.000Z</time>
      </trkpt>
      <trkpt lat="47.59382" lon="7.37167">
        <ele>413</ele>
        <time>2016-08-21T08:04:41.000Z</time>
      </trkpt>
      <trkpt lat="47.59374" lon="7.37174">
        <ele>414</ele>
        <time>2016-08-21T08:04:48.000Z</time>
      </trkpt>
      <trkpt lat="47.59364" lon="7.37179">
        <ele>414</ele>
        <time>2016-08-21T08:04:55.000Z</time>
      </trkpt>
      <trkpt lat="47.59355" lon="7.37182">
        <ele>413</ele>
        <time>2016-08-21T08:05:01.000Z</time>
      </trkpt>
      <trkpt lat="47.59345" lon="7.37187">
        <ele>412</ele>
        <time>2016-08-21T08:05:07.000Z</time>
      </trkpt>
      <trkpt lat="47.59336" lon="7.37192">
        <ele>412</ele>
        <time>2016-08-21T08:05:13.000Z</time>
      </trkpt>
      <trkpt lat="47.59325" lon="7.37199">
        <ele>414</ele>
        <time>2016-08-21T08:05:19.000Z</time>
      </trkpt>
      <trkpt lat="47.59316" lon="7.37201">
        <ele>414</ele>
        <time>2016-08-21T08:05:25.000Z</time>
      </trkpt>
      <trkpt lat="47.59307" lon="7.372">
        <ele>415</ele>
        <time>2016-08-21T08:05:32.000Z</time>
      </trkpt>
      <trkpt lat="47.59299" lon="7.37206">
        <ele>414</ele>
        <time>2016-08-21T08:05:37.000Z</time>
      </trkpt>
      <trkpt lat="47.5929" lon="7.37212">
        <ele>416</ele>
        <time>2016-08-21T08:05:42.000Z</time>
      </trkpt>
      <trkpt lat="47.59281" lon="7.37218">
        <ele>417</ele>
        <time>2016-08-21T08:05:47.000Z</time>
      </trkpt>
      <trkpt lat="47.59271" lon="7.37216">
        <ele>417</ele>
        <time>2016-08-21T08:05:53.000Z</time>
      </trkpt>
      <trkpt lat="47.59266" lon="7.37204">
        <ele>417</ele>
        <time>2016-08-21T08:06:06.000Z</time>
      </trkpt>
    </trkseg>
  </trk>
</gpx>